PORTS® Data Listing: 8726520 St. Petersburg, FL

CO-OPS RAW PORTS DATA

************************      PRELIMINARY DATA      ************************** 

     THIS RAW DATA HAS NOT BEEN SUBJECT TO THE NATIONAL OCEAN SERVICE'S        
     QUALITY CONTROL OR QUALITY ASSURANCE PROCEDURES AND DOES NOT MEET         
     THE CRITERIA AND STANDARDS OF OFFICIAL NATIONAL OCEAN SERVICE             
     DATA.  IT IS RELEASED FOR LIMITED PUBLIC USE AS PRELIMINARY DATA TO       
     BE USED ONLY WITH APPROPRIATE CAUTION.                                    

************************      PRELIMINARY DATA      ************************** 


       CD   -   Calendar date
       T    -   Time
       TZ   -   Timezone
       PW   -   Predicted water level (feet above MLLW)
       OW   -   Observed water level (feet above MLLW)
       WS   -   Wind speed (knots)
       WD   -   Wind direction (degrees true)
       WG   -   Wind gust (knots)
       AT   -   Air temperature (degrees farenheit)
       WT   -   Water temperature (degrees farenheit)
       AP   -   Air pressure (millibars)
       SA   -   Salinty (PSU - Practical Salinity Units)
       SG   -   Specific gravity
       RH   -   Relative humidity
       AG   -   Air gap (feet)
       VI   -   Visibility (nautical miles)

       ** NOTE **
       A variable that has its data fields filled with "9"s, indicates that
       data was not collected for that sample period.
       **********


STATION NAME: St. Petersburg (8726520)
****************************************************************************************************
    CD       T    TZ    PW     OW    WS   WD   WG    AT    WT    AP    SA    SG     RH    AG   VI
****************************************************************************************************
2020/02/25 00:18 EST    1.47   2.83    6  182    8  67.5  67.8 1014.4 -9.9 -9.999 -99.9 -99.99 -9.99
2020/02/25 00:24 EST    1.50   2.86    7  181    9  67.5  67.8 1014.4 -9.9 -9.999 -99.9 -99.99 -9.99
2020/02/25 00:30 EST    1.53   2.90    8  184    9  67.5  67.8 1014.4 -9.9 -9.999 -99.9 -99.99 -9.99
2020/02/25 00:36 EST    1.56   2.94    7  178    8  67.3  67.8 1014.3 -9.9 -9.999 -99.9 -99.99 -9.99
2020/02/25 00:42 EST    1.59   2.98    7  174    9  67.5  67.8 1014.3 -9.9 -9.999 -99.9 -99.99 -9.99
2020/02/25 00:48 EST    1.62   3.02    8  177    9  67.3  67.8 1014.3 -9.9 -9.999 -99.9 -99.99 -9.99
2020/02/25 00:54 EST    1.64   3.05    8  177   10  67.1  67.8 1014.4 -9.9 -9.999 -99.9 -99.99 -9.99
2020/02/25 01:00 EST    1.67   3.09    7  182   10  66.9  67.8 1014.4 -9.9 -9.999 -99.9 -99.99 -9.99
2020/02/25 01:06 EST    1.69   3.12    7  177    9  67.1  67.8 1014.3 -9.9 -9.999 -99.9 -99.99 -9.99
2020/02/25 01:12 EST    1.71   3.15    7  179    9  67.1  67.8 1014.3 -9.9 -9.999 -99.9 -99.99 -9.99
2020/02/25 01:18 EST    1.73   3.18    9  181   10  67.1  67.8 1014.2 -9.9 -9.999 -99.9 -99.99 -9.99
2020/02/25 01:24 EST    1.75   3.21    9  180   11  67.1  67.8 1014.1 -9.9 -9.999 -99.9 -99.99 -9.99
2020/02/25 01:30 EST    1.77   3.23   10  178   12  67.1  67.8 1014.0 -9.9 -9.999 -99.9 -99.99 -9.99
2020/02/25 01:36 EST    1.78 -99.99 -999 -999 -999 -99.9 -99.9 -999.9 -9.9 -9.999 -99.9 -99.99 -9.99
2020/02/25 01:42 EST    1.80   3.26   11  175   14  66.9  67.8 1013.8 -9.9 -9.999 -99.9 -99.99 -9.99
2020/02/25 01:48 EST    1.81   3.27   11  172   13  66.9  67.8 1013.7 -9.9 -9.999 -99.9 -99.99 -9.99
2020/02/25 01:54 EST    1.82   3.28   12  172   13  66.9  67.8 1013.6 -9.9 -9.999 -99.9 -99.99 -9.99
2020/02/25 02:00 EST    1.83   3.29   11  178   14  66.7  67.8 1013.5 -9.9 -9.999 -99.9 -99.99 -9.99
2020/02/25 02:06 EST    1.83   3.30   12  177   14  66.7  67.8 1013.4 -9.9 -9.999 -99.9 -99.99 -9.99
2020/02/25 02:12 EST    1.84 -99.99 -999 -999 -999 -99.9 -99.9 -999.9 -9.9 -9.999 -99.9 -99.99 -9.99
2020/02/25 02:18 EST    1.84   3.30   11  182   13  66.6  67.8 1013.4 -9.9 -9.999 -99.9 -99.99 -9.99
2020/02/25 02:24 EST    1.84   3.31   11  184   12  66.6  67.8 1013.5 -9.9 -9.999 -99.9 -99.99 -9.99
2020/02/25 02:30 EST    1.84   3.29    9  187   12  66.7  67.8 1013.5 -9.9 -9.999 -99.9 -99.99 -9.99
2020/02/25 02:36 EST    1.84   3.29   11  186   13  66.9  67.8 1013.4 -9.9 -9.999 -99.9 -99.99 -9.99
2020/02/25 02:42 EST    1.84   3.29   12  183   14  66.9  67.8 1013.4 -9.9 -9.999 -99.9 -99.99 -9.99
2020/02/25 02:48 EST    1.83   3.27    8  189   12  66.9  67.8 1013.5 -9.9 -9.999 -99.9 -99.99 -9.99
2020/02/25 02:54 EST    1.82   3.27    9  188   11  66.9  67.8 1013.5 -9.9 -9.999 -99.9 -99.99 -9.99
2020/02/25 03:00 EST    1.81   3.25    8  188   11  67.1  67.8 1013.5 -9.9 -9.999 -99.9 -99.99 -9.99
2020/02/25 03:06 EST    1.80   3.23    9  187   11  67.1  67.8 1013.4 -9.9 -9.999 -99.9 -99.99 -9.99
2020/02/25 03:12 EST    1.79   3.22   10  182   11  67.1  67.8 1013.3 -9.9 -9.999 -99.9 -99.99 -9.99
2020/02/25 03:18 EST    1.77   3.18    9  183   11  67.3  67.8 1013.3 -9.9 -9.999 -99.9 -99.99 -9.99
2020/02/25 03:24 EST    1.75   3.16   10  180   12  67.3  67.8 1013.1 -9.9 -9.999 -99.9 -99.99 -9.99
2020/02/25 03:30 EST    1.73   3.14    9  180   12  67.5  67.8 1013.1 -9.9 -9.999 -99.9 -99.99 -9.99
2020/02/25 03:36 EST    1.71   3.11   10  177   11  67.3  67.8 1012.9 -9.9 -9.999 -99.9 -99.99 -9.99
2020/02/25 03:42 EST    1.69   3.09    9  175   11  67.3  67.8 1012.9 -9.9 -9.999 -99.9 -99.99 -9.99
2020/02/25 03:48 EST    1.67   3.07    9  176   10  67.1  67.8 1012.8 -9.9 -9.999 -99.9 -99.99 -9.99
2020/02/25 03:54 EST    1.64   3.03   10  175   11  67.1  68.0 1012.7 -9.9 -9.999 -99.9 -99.99 -9.99
2020/02/25 04:00 EST    1.61   3.00    9  175   11  67.1  68.0 1012.6 -9.9 -9.999 -99.9 -99.99 -9.99
2020/02/25 04:06 EST    1.58   2.99   11  172   12  66.9  68.0 1012.6 -9.9 -9.999 -99.9 -99.99 -9.99
2020/02/25 04:12 EST    1.55   2.97   10  174   12  66.9  68.0 1012.5 -9.9 -9.999 -99.9 -99.99 -9.99
2020/02/25 04:18 EST    1.52   2.94    9  172   11  66.9  68.0 1012.3 -9.9 -9.999 -99.9 -99.99 -9.99
2020/02/25 04:24 EST    1.49   2.89   10  174   12  66.7  68.0 1012.3 -9.9 -9.999 -99.9 -99.99 -9.99
2020/02/25 04:30 EST    1.45   2.86   11  173   12  66.7  68.0 1012.3 -9.9 -9.999 -99.9 -99.99 -9.99
2020/02/25 04:36 EST    1.41   2.83   11  172   13  66.9  68.0 1012.4 -9.9 -9.999 -99.9 -99.99 -9.99
2020/02/25 04:42 EST    1.38   2.80   10  174   12  66.9  68.0 1012.4 -9.9 -9.999 -99.9 -99.99 -9.99
2020/02/25 04:48 EST    1.34   2.76    9  175   11  66.9  68.0 1012.5 -9.9 -9.999 -99.9 -99.99 -9.99
2020/02/25 04:54 EST    1.30   2.72    9  172   11  66.9  68.0 1012.4 -9.9 -9.999 -99.9 -99.99 -9.99
2020/02/25 05:00 EST    1.26   2.69   10  170   12  66.9  68.0 1012.3 -9.9 -9.999 -99.9 -99.99 -9.99
2020/02/25 05:06 EST    1.21   2.65   11  172   12  66.9  68.0 1012.2 -9.9 -9.999 -99.9 -99.99 -9.99
2020/02/25 05:12 EST    1.17   2.61   10  172   12  66.9  68.0 1012.2 -9.9 -9.999 -99.9 -99.99 -9.99
2020/02/25 05:18 EST    1.13   2.57    9  171   11  66.9  68.0 1012.2 -9.9 -9.999 -99.9 -99.99 -9.99
2020/02/25 05:24 EST    1.08   2.52    9  173   12  67.1  67.8 1012.3 -9.9 -9.999 -99.9 -99.99 -9.99
2020/02/25 05:30 EST    1.04   2.48    8  175   10  67.1  67.8 1012.4 -9.9 -9.999 -99.9 -99.99 -9.99
2020/02/25 05:36 EST    0.99   2.43    7  170   10  66.9  67.8 1012.3 -9.9 -9.999 -99.9 -99.99 -9.99
2020/02/25 05:42 EST    0.95   2.37    9  172   10  66.9  67.8 1012.4 -9.9 -9.999 -99.9 -99.99 -9.99
2020/02/25 05:48 EST    0.90   2.32    8  172   10  66.7  67.8 1012.4 -9.9 -9.999 -99.9 -99.99 -9.99
2020/02/25 05:54 EST    0.86   2.26    9  172   10  66.7  67.6 1012.4 -9.9 -9.999 -99.9 -99.99 -9.99
2020/02/25 06:00 EST    0.81 -99.99 -999 -999 -999 -99.9 -99.9 -999.9 -9.9 -9.999 -99.9 -99.99 -9.99
2020/02/25 06:06 EST    0.76   2.16   10  172   11  66.7  67.6 1012.4 -9.9 -9.999 -99.9 -99.99 -9.99
2020/02/25 06:12 EST    0.72   2.12    9  173   11  66.9  67.6 1012.5 -9.9 -9.999 -99.9 -99.99 -9.99
2020/02/25 06:18 EST    0.67   2.07    9  170   11  66.7  67.6 1012.5 -9.9 -9.999 -99.9 -99.99 -9.99
2020/02/25 06:24 EST    0.63   2.03    8  170   10  66.7  67.6 1012.5 -9.9 -9.999 -99.9 -99.99 -9.99
2020/02/25 06:30 EST    0.58   2.00   10  170   11  66.7  67.6 1012.6 -9.9 -9.999 -99.9 -99.99 -9.99
2020/02/25 06:36 EST    0.54   1.95    9  169   11  66.6  67.6 1012.5 -9.9 -9.999 -99.9 -99.99 -9.99
2020/02/25 06:42 EST    0.49   1.91    9  172   11  66.7  67.6 1012.6 -9.9 -9.999 -99.9 -99.99 -9.99
2020/02/25 06:48 EST    0.45   1.87    9  174   11  66.6  67.6 1012.6 -9.9 -9.999 -99.9 -99.99 -9.99
2020/02/25 06:54 EST    0.41   1.83   10  173   12  66.6  67.5 1012.6 -9.9 -9.999 -99.9 -99.99 -9.99
2020/02/25 07:00 EST    0.37   1.80   10  171   11  66.6  67.5 1012.6 -9.9 -9.999 -99.9 -99.99 -9.99
2020/02/25 07:06 EST    0.33   1.76    9  168   11  66.6  67.5 1012.6 -9.9 -9.999 -99.9 -99.99 -9.99
2020/02/25 07:12 EST    0.29   1.72    8  169   11  66.7  67.3 1012.7 -9.9 -9.999 -99.9 -99.99 -9.99
2020/02/25 07:18 EST    0.25   1.69    9  168   11  66.7  67.3 1012.8 -9.9 -9.999 -99.9 -99.99 -9.99
2020/02/25 07:24 EST    0.21   1.65    9  166   11  66.9  67.3 1012.7 -9.9 -9.999 -99.9 -99.99 -9.99
2020/02/25 07:30 EST    0.18   1.61    7  166   11  66.9  67.3 1012.7 -9.9 -9.999 -99.9 -99.99 -9.99
2020/02/25 07:36 EST    0.14   1.58    9  168   10  67.1  67.3 1012.9 -9.9 -9.999 -99.9 -99.99 -9.99
2020/02/25 07:42 EST    0.11   1.54    8  170   10  67.3  67.3 1012.9 -9.9 -9.999 -99.9 -99.99 -9.99
2020/02/25 07:48 EST    0.08   1.51    8  169   10  67.3  67.3 1012.9 -9.9 -9.999 -99.9 -99.99 -9.99
2020/02/25 07:54 EST    0.05   1.47    7  168    9  67.6  67.3 1013.0 -9.9 -9.999 -99.9 -99.99 -9.99
2020/02/25 08:00 EST    0.02   1.44    7  170    8  67.8  67.3 1013.1 -9.9 -9.999 -99.9 -99.99 -9.99
2020/02/25 08:06 EST   -0.00   1.42    5  161    9  68.0  67.3 1013.0 -9.9 -9.999 -99.9 -99.99 -9.99
2020/02/25 08:12 EST   -0.03   1.39    5  160    6  67.8  67.3 1013.0 -9.9 -9.999 -99.9 -99.99 -9.99
2020/02/25 08:18 EST   -0.05   1.37    7  174    9  68.2  67.3 1013.1 -9.9 -9.999 -99.9 -99.99 -9.99
2020/02/25 08:24 EST   -0.07   1.36    7  171    9  68.4  67.3 1013.1 -9.9 -9.999 -99.9 -99.99 -9.99
2020/02/25 08:30 EST   -0.08   1.32    8  172    9  68.5  67.3 1013.1 -9.9 -9.999 -99.9 -99.99 -9.99
2020/02/25 08:36 EST   -0.10   1.30    8  173   10  68.7  67.3 1013.1 -9.9 -9.999 -99.9 -99.99 -9.99
2020/02/25 08:42 EST   -0.11   1.28    8  172   10  68.9  67.3 1013.0 -9.9 -9.999 -99.9 -99.99 -9.99
2020/02/25 08:48 EST   -0.12   1.29    7  170    9  69.3  67.3 1013.1 -9.9 -9.999 -99.9 -99.99 -9.99
2020/02/25 08:54 EST   -0.13 -99.99 -999 -999 -999 -99.9 -99.9 -999.9 -9.9 -9.999 -99.9 -99.99 -9.99
2020/02/25 09:00 EST   -0.13   1.27    7  172    8  69.4  67.3 1013.3 -9.9 -9.999 -99.9 -99.99 -9.99
2020/02/25 09:06 EST   -0.14   1.27    7  171    9  69.8  67.3 1013.4 -9.9 -9.999 -99.9 -99.99 -9.99
2020/02/25 09:12 EST   -0.14   1.26    7  175    9  70.2  67.3 1013.5 -9.9 -9.999 -99.9 -99.99 -9.99
2020/02/25 09:18 EST   -0.14   1.26    6  170    8  70.5  67.3 1013.5 -9.9 -9.999 -99.9 -99.99 -9.99
2020/02/25 09:24 EST   -0.13 -99.99 -999 -999 -999 -99.9 -99.9 -999.9 -9.9 -9.999 -99.9 -99.99 -9.99
2020/02/25 09:30 EST   -0.13   1.27   11  185   15  72.5  67.5 1013.8 -9.9 -9.999 -99.9 -99.99 -9.99
2020/02/25 09:36 EST   -0.12   1.31    9  188   14  72.9  67.5 1013.9 -9.9 -9.999 -99.9 -99.99 -9.99
2020/02/25 09:42 EST   -0.11   1.30   11  190   15  73.4  67.5 1013.9 -9.9 -9.999 -99.9 -99.99 -9.99
2020/02/25 09:48 EST   -0.10 -99.99 -999 -999 -999 -99.9 -99.9 -999.9 -9.9 -9.999 -99.9 -99.99 -9.99
2020/02/25 09:54 EST   -0.08 -99.99 -999 -999 -999 -99.9 -99.9 -999.9 -9.9 -9.999 -99.9 -99.99 -9.99
2020/02/25 10:00 EST   -0.07   1.37   15  196   17  73.4  67.5 1014.2 -9.9 -9.999 -99.9 -99.99 -9.99
2020/02/25 10:06 EST   -0.05   1.39   13  193   17  73.4  67.5 1014.3 -9.9 -9.999 -99.9 -99.99 -9.99
2020/02/25 10:12 EST   -0.03   1.42   15  195   19  73.6  67.5 1014.4 -9.9 -9.999 -99.9 -99.99 -9.99
2020/02/25 10:18 EST   -0.01   1.43   13  195   17  73.6  67.5 1014.3 -9.9 -9.999 -99.9 -99.99 -9.99
2020/02/25 10:24 EST    0.02   1.44   15  200   19  73.8  67.5 1014.2 -9.9 -9.999 -99.9 -99.99 -9.99
2020/02/25 10:30 EST    0.05   1.47   14  199   19  73.6  67.5 1014.1 -9.9 -9.999 -99.9 -99.99 -9.99
2020/02/25 10:36 EST    0.07   1.50   14  198   20  73.6  67.5 1014.0 -9.9 -9.999 -99.9 -99.99 -9.99
2020/02/25 10:42 EST    0.10   1.51   15  195   18  73.6  67.5 1014.1 -9.9 -9.999 -99.9 -99.99 -9.99
2020/02/25 10:48 EST    0.13   1.55   15  199   20  73.6  67.5 1014.0 -9.9 -9.999 -99.9 -99.99 -9.99
2020/02/25 10:54 EST    0.17   1.59   14  197   17  73.6  67.6 1013.9 -9.9 -9.999 -99.9 -99.99 -9.99
2020/02/25 11:00 EST    0.20   1.61   15  194   18  73.8  67.6 1014.0 -9.9 -9.999 -99.9 -99.99 -9.99
2020/02/25 11:06 EST    0.23   1.65   15  198   20  74.1  67.6 1014.0 -9.9 -9.999 -99.9 -99.99 -9.99
2020/02/25 11:12 EST    0.27   1.68   15  197   19  74.1  67.6 1014.0 -9.9 -9.999 -99.9 -99.99 -9.99
2020/02/25 11:18 EST    0.31   1.70   17  196   21  74.1  67.8 1013.9 -9.9 -9.999 -99.9 -99.99 -9.99
2020/02/25 11:24 EST    0.35   1.72   15  198   23  74.1  67.8 1013.8 -9.9 -9.999 -99.9 -99.99 -9.99
2020/02/25 11:30 EST    0.38   1.74   17  192   24  74.5  68.0 1013.7 -9.9 -9.999 -99.9 -99.99 -9.99
2020/02/25 11:36 EST    0.42   1.77   17  197   23  74.5  68.0 1013.6 -9.9 -9.999 -99.9 -99.99 -9.99
2020/02/25 11:42 EST    0.46   1.80   17  198   22  74.3  68.0 1013.5 -9.9 -9.999 -99.9 -99.99 -9.99
2020/02/25 11:48 EST    0.50   1.81   17  192   25  74.5  68.2 1013.5 -9.9 -9.999 -99.9 -99.99 -9.99
2020/02/25 11:54 EST    0.55   1.86   18  195   23  74.7  68.2 1013.4 -9.9 -9.999 -99.9 -99.99 -9.99
2020/02/25 12:00 EST    0.59   1.89   17  199   25  74.7  68.2 1013.4 -9.9 -9.999 -99.9 -99.99 -9.99
2020/02/25 12:06 EST    0.63   1.92   16  198   24  75.0  68.2 1013.4 -9.9 -9.999 -99.9 -99.99 -9.99
2020/02/25 12:12 EST    0.67   1.95   19  197   24  75.0  68.4 1013.2 -9.9 -9.999 -99.9 -99.99 -9.99
2020/02/25 12:18 EST    0.71   1.98   17  202   21  74.8  68.4 1013.2 -9.9 -9.999 -99.9 -99.99 -9.99
2020/02/25 12:24 EST    0.75   2.00   18  196   22  75.0  68.4 1013.1 -9.9 -9.999 -99.9 -99.99 -9.99
2020/02/25 12:30 EST    0.79   2.03   17  199   24  75.2  68.4 1013.0 -9.9 -9.999 -99.9 -99.99 -9.99
2020/02/25 12:36 EST    0.83   2.06   18  198   23  75.4  68.5 1012.9 -9.9 -9.999 -99.9 -99.99 -9.99
2020/02/25 12:42 EST    0.87   2.09   19  196   23  75.2  68.5 1012.8 -9.9 -9.999 -99.9 -99.99 -9.99
2020/02/25 12:48 EST    0.91   2.12   19  200   24  75.6  68.7 1012.6 -9.9 -9.999 -99.9 -99.99 -9.99
2020/02/25 12:54 EST    0.95   2.17   18  198   24  75.9  68.7 1012.6 -9.9 -9.999 -99.9 -99.99 -9.99
2020/02/25 13:00 EST    0.99   2.21   18  201   22  75.9  68.9 1012.6 -9.9 -9.999 -99.9 -99.99 -9.99
2020/02/25 13:06 EST    1.02   2.24   18  198   23  75.9  68.9 1012.6 -9.9 -9.999 -99.9 -99.99 -9.99
2020/02/25 13:12 EST    1.06   2.26   18  203   21  75.9  68.9 1012.5 -9.9 -9.999 -99.9 -99.99 -9.99
2020/02/25 13:18 EST    1.09   2.29   17  197   24  75.7  69.1 1012.5 -9.9 -9.999 -99.9 -99.99 -9.99
2020/02/25 13:24 EST    1.13 -99.99 -999 -999 -999 -99.9 -99.9 -999.9 -9.9 -9.999 -99.9 -99.99 -9.99
2020/02/25 13:30 EST    1.16   2.36   12  195   22  75.2  69.1 1012.4 -9.9 -9.999 -99.9 -99.99 -9.99
2020/02/25 13:36 EST    1.19   2.38   17  195   22  75.0  69.1 1012.3 -9.9 -9.999 -99.9 -99.99 -9.99
2020/02/25 13:42 EST    1.22   2.40   13  193   16  75.0  69.3 1012.3 -9.9 -9.999 -99.9 -99.99 -9.99
2020/02/25 13:48 EST    1.25   2.43   14  199   17  75.0  69.3 1012.3 -9.9 -9.999 -99.9 -99.99 -9.99
2020/02/25 13:54 EST    1.27   2.46   12  198   17  75.2  69.3 1012.3 -9.9 -9.999 -99.9 -99.99 -9.99
2020/02/25 14:00 EST    1.30   2.49   13  202   16  75.2  69.3 1012.2 -9.9 -9.999 -99.9 -99.99 -9.99
2020/02/25 14:06 EST    1.32   2.52   13  204   16  75.4  69.4 1012.2 -9.9 -9.999 -99.9 -99.99 -9.99
2020/02/25 14:12 EST    1.34   2.52   17  202   20  75.7  69.4 1012.1 -9.9 -9.999 -99.9 -99.99 -9.99
2020/02/25 14:18 EST    1.36 -99.99 -999 -999 -999 -99.9 -99.9 -999.9 -9.9 -9.999 -99.9 -99.99 -9.99
2020/02/25 14:24 EST    1.38   2.56   17  202   22  75.9  69.6 1012.0 -9.9 -9.999 -99.9 -99.99 -9.99
2020/02/25 14:30 EST    1.40   2.57   17  209   21  75.9  69.6 1011.9 -9.9 -9.999 -99.9 -99.99 -9.99
2020/02/25 14:36 EST    1.41   2.60   17  208   23  75.7  69.6 1012.0 -9.9 -9.999 -99.9 -99.99 -9.99
2020/02/25 14:42 EST    1.43   2.62   17  201   22  75.7  69.6 1011.9 -9.9 -9.999 -99.9 -99.99 -9.99
2020/02/25 14:48 EST    1.44   2.62   17  205   24  75.4  69.8 1011.8 -9.9 -9.999 -99.9 -99.99 -9.99
2020/02/25 14:54 EST    1.45   2.64   18  201   24  75.4  69.8 1011.7 -9.9 -9.999 -99.9 -99.99 -9.99
2020/02/25 15:00 EST    1.46   2.64   19  206   25  75.6  69.8 1011.5 -9.9 -9.999 -99.9 -99.99 -9.99
2020/02/25 15:06 EST    1.46   2.65   20  203   23  75.4  69.8 1011.4 -9.9 -9.999 -99.9 -99.99 -9.99
2020/02/25 15:12 EST    1.47   2.66   19  195   24  75.4  69.8 1011.5 -9.9 -9.999 -99.9 -99.99 -9.99
2020/02/25 15:18 EST    1.47   2.67   18  201   22  75.4  69.8 1011.5 -9.9 -9.999 -99.9 -99.99 -9.99
2020/02/25 15:24 EST    1.47   2.66   17  199   22  75.6  70.0 1011.6 -9.9 -9.999 -99.9 -99.99 -9.99
2020/02/25 15:30 EST    1.47   2.65   18  194   24  75.7  70.0 1011.5 -9.9 -9.999 -99.9 -99.99 -9.99
2020/02/25 15:36 EST    1.47   2.65   17  200   21  75.2  70.0 1011.6 -9.9 -9.999 -99.9 -99.99 -9.99
2020/02/25 15:42 EST    1.46   2.64   16  200   22  75.4  70.0 1011.6 -9.9 -9.999 -99.9 -99.99 -9.99
2020/02/25 15:48 EST    1.45   2.62   16  205   23  75.4  70.0 1011.6 -9.9 -9.999 -99.9 -99.99 -9.99
2020/02/25 15:54 EST    1.45   2.59   17  204   21  75.7  70.0 1011.6 -9.9 -9.999 -99.9 -99.99 -9.99
2020/02/25 16:00 EST    1.44   2.58   16  201   23  75.4  70.0 1011.7 -9.9 -9.999 -99.9 -99.99 -9.99
2020/02/25 16:06 EST    1.43   2.58   16  199   21  75.0  70.0 1011.7 -9.9 -9.999 -99.9 -99.99 -9.99
2020/02/25 16:12 EST    1.41   2.56   16  203   21  75.0  70.0 1011.7 -9.9 -9.999 -99.9 -99.99 -9.99
2020/02/25 16:18 EST    1.40   2.55   16  203   20  74.8  70.0 1011.8 -9.9 -9.999 -99.9 -99.99 -9.99
2020/02/25 16:24 EST    1.38   2.54   14  204   18  74.8  70.0 1011.9 -9.9 -9.999 -99.9 -99.99 -9.99
2020/02/25 16:30 EST    1.37   2.52   13  204   21  75.0  70.0 1011.9 -9.9 -9.999 -99.9 -99.99 -9.99
2020/02/25 16:36 EST    1.35   2.51   16  202   20  74.8  70.0 1011.8 -9.9 -9.999 -99.9 -99.99 -9.99
2020/02/25 16:42 EST    1.33   2.49   16  202   21  74.7  70.0 1011.8 -9.9 -9.999 -99.9 -99.99 -9.99
2020/02/25 16:48 EST    1.31   2.49   15  195   21  74.7  70.0 1011.9 -9.9 -9.999 -99.9 -99.99 -9.99
2020/02/25 16:54 EST    1.29   2.45   15  197   21  74.7  70.0 1011.8 -9.9 -9.999 -99.9 -99.99 -9.99
2020/02/25 17:00 EST    1.26   2.44   15  200   18  74.5  70.2 1011.8 -9.9 -9.999 -99.9 -99.99 -9.99
2020/02/25 17:06 EST    1.24   2.43   13  199   17  74.5  70.2 1011.7 -9.9 -9.999 -99.9 -99.99 -9.99
2020/02/25 17:12 EST    1.21   2.41   13  201   17  74.8  70.2 1011.8 -9.9 -9.999 -99.9 -99.99 -9.99
2020/02/25 17:18 EST    1.19   2.40   14  200   17  74.7  70.2 1011.8 -9.9 -9.999 -99.9 -99.99 -9.99
2020/02/25 17:24 EST    1.16   2.38   14  205   19  74.3  70.2 1011.9 -9.9 -9.999 -99.9 -99.99 -9.99
2020/02/25 17:30 EST    1.13   2.36   14  199   18  74.1  70.2 1011.9 -9.9 -9.999 -99.9 -99.99 -9.99
2020/02/25 17:36 EST    1.11   2.34   16  201   18  73.9  70.2 1011.9 -9.9 -9.999 -99.9 -99.99 -9.99
2020/02/25 17:42 EST    1.08   2.32   16  199   18  73.9  70.2 1012.0 -9.9 -9.999 -99.9 -99.99 -9.99
2020/02/25 17:48 EST    1.05   2.30   15  201   19  73.8  70.2 1012.1 -9.9 -9.999 -99.9 -99.99 -9.99
2020/02/25 17:54 EST    1.02   2.26   14  201   19  73.9  70.2 1012.3 -9.9 -9.999 -99.9 -99.99 -9.99
2020/02/25 18:00 EST    0.99   2.23   14  209   19  73.9  70.2 1012.5 -9.9 -9.999 -99.9 -99.99 -9.99
2020/02/25 18:06 EST    0.96   2.22   11  216   17  73.9  70.2 1012.8 -9.9 -9.999 -99.9 -99.99 -9.99
2020/02/25 18:12 EST    0.93   2.20   14  206   17  73.8  70.2 1012.8 -9.9 -9.999 -99.9 -99.99 -9.99
2020/02/25 18:18 EST    0.90   2.16   11  212   15  73.6  70.2 1013.1 -9.9 -9.999 -99.9 -99.99 -9.99
2020/02/25 18:24 EST    0.87   2.13    8  256   13  73.6  70.2 1013.5 -9.9 -9.999 -99.9 -99.99 -9.99
2020/02/25 18:30 EST    0.84   2.10    8  258   13  73.4  70.2 1013.6 -9.9 -9.999 -99.9 -99.99 -9.99
2020/02/25 18:36 EST    0.81   2.08    7  264   10  73.4  70.2 1013.8 -9.9 -9.999 -99.9 -99.99 -9.99
2020/02/25 18:42 EST    0.78   2.05    9  266   11  73.2  70.2 1013.9 -9.9 -9.999 -99.9 -99.99 -9.99
2020/02/25 18:48 EST    0.75   2.00    9  263   10  73.0  70.2 1014.0 -9.9 -9.999 -99.9 -99.99 -9.99
2020/02/25 18:54 EST    0.73   1.95    9  278   11  72.7  70.2 1014.1 -9.9 -9.999 -99.9 -99.99 -9.99
2020/02/25 19:00 EST    0.70   1.93    8  294   10  72.3  70.2 1014.2 -9.9 -9.999 -99.9 -99.99 -9.99
2020/02/25 19:06 EST    0.67   1.91    7  282   10  71.8  70.2 1014.1 -9.9 -9.999 -99.9 -99.99 -9.99
2020/02/25 19:12 EST    0.65   1.87    9  300   12  71.4  70.2 1014.4 -9.9 -9.999 -99.9 -99.99 -9.99
2020/02/25 19:18 EST    0.62 -99.99 -999 -999 -999 -99.9 -99.9 -999.9 -9.9 -9.999 -99.9 -99.99 -9.99
2020/02/25 19:24 EST    0.60   1.88    5  355    9  69.8  70.2 1014.5 -9.9 -9.999 -99.9 -99.99 -9.99
2020/02/25 19:30 EST    0.57   1.83    6  356    9  69.1  70.0 1014.5 -9.9 -9.999 -99.9 -99.99 -9.99
2020/02/25 19:36 EST    0.55   1.82    7  348   10  68.4  70.0 1014.7 -9.9 -9.999 -99.9 -99.99 -9.99
2020/02/25 19:42 EST    0.53   1.79    5  337   11  68.4  69.8 1014.9 -9.9 -9.999 -99.9 -99.99 -9.99
2020/02/25 19:48 EST    0.51   1.69    7  317   12  68.2  69.8 1015.0 -9.9 -9.999 -99.9 -99.99 -9.99
2020/02/25 19:54 EST    0.49   1.70    8  324   13  67.8  69.8 1014.9 -9.9 -9.999 -99.9 -99.99 -9.99
2020/02/25 20:00 EST    0.47   1.67    6  342   13  67.6  69.8 1015.0 -9.9 -9.999 -99.9 -99.99 -9.99
2020/02/25 20:06 EST    0.46   1.62    6  336   10  67.3  69.8 1015.0 -9.9 -9.999 -99.9 -99.99 -9.99
2020/02/25 20:12 EST    0.44   1.62    9  339   13  66.9  69.6 1015.0 -9.9 -9.999 -99.9 -99.99 -9.99
2020/02/25 20:18 EST    0.43   1.61    5  345   11  66.7  69.6 1015.1 -9.9 -9.999 -99.9 -99.99 -9.99
2020/02/25 20:24 EST    0.42   1.60    7  351   11  66.7  69.6 1014.9 -9.9 -9.999 -99.9 -99.99 -9.99
2020/02/25 20:30 EST    0.41   1.61    6  342    9  66.6  69.6 1014.8 -9.9 -9.999 -99.9 -99.99 -9.99
2020/02/25 20:36 EST    0.40   1.62    4   12    9  66.4  69.6 1014.7 -9.9 -9.999 -99.9 -99.99 -9.99
2020/02/25 20:42 EST    0.39   1.60    4   23    6  66.6  69.4 1014.8 -9.9 -9.999 -99.9 -99.99 -9.99
2020/02/25 20:48 EST    0.39   1.59    4   34    5  66.7  69.4 1014.8 -9.9 -9.999 -99.9 -99.99 -9.99
2020/02/25 20:54 EST    0.38   1.57    4   33    6  66.6  69.4 1014.8 -9.9 -9.999 -99.9 -99.99 -9.99
2020/02/25 21:00 EST    0.38   1.52    6   40    7  66.2  69.4 1014.7 -9.9 -9.999 -99.9 -99.99 -9.99
2020/02/25 21:06 EST    0.38   1.51    4   35    6  66.4  69.4 1014.7 -9.9 -9.999 -99.9 -99.99 -9.99
2020/02/25 21:12 EST    0.38   1.50    5   41    6  66.4  69.4 1014.8 -9.9 -9.999 -99.9 -99.99 -9.99
2020/02/25 21:18 EST    0.39   1.48    3   26    6  66.6  69.4 1014.9 -9.9 -9.999 -99.9 -99.99 -9.99
2020/02/25 21:24 EST    0.39   1.46    4   26    5  66.7  69.4 1014.9 -9.9 -9.999 -99.9 -99.99 -9.99
2020/02/25 21:30 EST    0.40   1.45    3  283    4  66.9  69.4 1015.2 -9.9 -9.999 -99.9 -99.99 -9.99
2020/02/25 21:36 EST    0.41   1.43    4   51    4  66.7  69.4 1014.9 -9.9 -9.999 -99.9 -99.99 -9.99
2020/02/25 21:42 EST    0.42   1.42    1  137    4  66.9  69.4 1015.2 -9.9 -9.999 -99.9 -99.99 -9.99
2020/02/25 21:48 EST    0.43   1.40    2   59    3  66.7  69.4 1015.2 -9.9 -9.999 -99.9 -99.99 -9.99
2020/02/25 21:54 EST    0.45   1.40    3   41    4  66.7  69.4 1015.2 -9.9 -9.999 -99.9 -99.99 -9.99
2020/02/25 22:00 EST    0.46   1.40    3   53    4  66.7  69.4 1015.2 -9.9 -9.999 -99.9 -99.99 -9.99
2020/02/25 22:06 EST    0.48   1.42    2  359    3  66.9  69.4 1015.3 -9.9 -9.999 -99.9 -99.99 -9.99
2020/02/25 22:12 EST    0.50   1.45    1  360    3  67.1  69.4 1015.4 -9.9 -9.999 -99.9 -99.99 -9.99
2020/02/25 22:18 EST    0.52   1.45    1   21    1  66.7  69.4 1015.3 -9.9 -9.999 -99.9 -99.99 -9.99
2020/02/25 22:24 EST    0.54   1.47    3  338    4  66.9  69.4 1015.3 -9.9 -9.999 -99.9 -99.99 -9.99
2020/02/25 22:30 EST    0.56 -99.99 -999 -999 -999 -99.9 -99.9 -999.9 -9.9 -9.999 -99.9 -99.99 -9.99
2020/02/25 22:36 EST    0.59   1.54    1  348    2  66.4  69.4 1015.5 -9.9 -9.999 -99.9 -99.99 -9.99
2020/02/25 22:42 EST    0.61   1.57    2   26    3  66.0  69.4 1015.4 -9.9 -9.999 -99.9 -99.99 -9.99
2020/02/25 22:48 EST    0.64   1.62    1  341    2  66.2  69.4 1015.5 -9.9 -9.999 -99.9 -99.99 -9.99
2020/02/25 22:54 EST    0.67   1.64    3  284    4  66.6  69.4 1015.7 -9.9 -9.999 -99.9 -99.99 -9.99
2020/02/25 23:00 EST    0.70   1.65    3  268    4  67.3  69.4 1015.7 -9.9 -9.999 -99.9 -99.99 -9.99
2020/02/25 23:06 EST    0.73   1.71    2  329    5  66.9  69.4 1015.5 -9.9 -9.999 -99.9 -99.99 -9.99
2020/02/25 23:12 EST    0.76   1.76    2   32    4  66.7  69.4 1015.3 -9.9 -9.999 -99.9 -99.99 -9.99
2020/02/25 23:18 EST    0.79   1.76    3   59    4  66.6  69.4 1015.4 -9.9 -9.999 -99.9 -99.99 -9.99
2020/02/25 23:24 EST    0.82   1.81    1   15    2  66.7  69.4 1015.6 -9.9 -9.999 -99.9 -99.99 -9.99
2020/02/25 23:30 EST    0.86   1.85    3   13    4  66.7  69.4 1015.5 -9.9 -9.999 -99.9 -99.99 -9.99
2020/02/25 23:36 EST    0.89   1.87    2   17    4  66.9  69.4 1015.5 -9.9 -9.999 -99.9 -99.99 -9.99
2020/02/25 23:42 EST    0.93   1.91    1  337    3  66.9  69.4 1015.6 -9.9 -9.999 -99.9 -99.99 -9.99
2020/02/25 23:48 EST    0.96   1.94    1   52    2  66.7  69.4 1015.4 -9.9 -9.999 -99.9 -99.99 -9.99
2020/02/25 23:54 EST    1.00   1.97    3   39    4  66.6  69.4 1015.2 -9.9 -9.999 -99.9 -99.99 -9.99
2020/02/26 00:00 EST    1.03   2.00    2   57    4  66.4  69.4 1015.2 -9.9 -9.999 -99.9 -99.99 -9.99
2020/02/26 00:06 EST    1.07   2.04    3   82    3  66.6  69.4 1015.1 -9.9 -9.999 -99.9 -99.99 -9.99
2020/02/26 00:12 EST    1.10   2.05    3   54    4  66.6  69.4 1014.9 -9.9 -9.999 -99.9 -99.99 -9.99
2020/02/26 00:18 EST    1.14 -99.99 -999 -999 -999 -99.9 -99.9 -999.9 -9.9 -9.999 -99.9 -99.99 -9.99
2020/02/26 00:24 EST    1.17   2.14    1   41    3  66.6  69.4 1015.0 -9.9 -9.999 -99.9 -99.99 -9.99
2020/02/26 00:30 EST    1.21   2.15    1   64    2  66.6  69.4 1014.8 -9.9 -9.999 -99.9 -99.99 -9.99
2020/02/26 00:36 EST    1.24   2.15    2   51    2  66.6  69.4 1014.6 -9.9 -9.999 -99.9 -99.99 -9.99
2020/02/26 00:42 EST    1.27   2.23    4  119    5  66.7  69.4 1014.5 -9.9 -9.999 -99.9 -99.99 -9.99
2020/02/26 00:48 EST    1.31   2.25    4  137    7  67.1  69.4 1014.5 -9.9 -9.999 -99.9 -99.99 -9.99
2020/02/26 00:54 EST    1.34   2.27    5  139    8  67.5  69.4 1014.4 -9.9 -9.999 -99.9 -99.99 -9.99
2020/02/26 01:00 EST    1.37   2.33    6  140    9  67.6  69.4 1014.4 -9.9 -9.999 -99.9 -99.99 -9.99
2020/02/26 01:06 EST    1.40   2.35    6  145    9  67.8  69.4 1014.4 -9.9 -9.999 -99.9 -99.99 -9.99
2020/02/26 01:12 EST    1.43   2.39    4  147    8  68.2  69.4 1014.3 -9.9 -9.999 -99.9 -99.99 -9.99
2020/02/26 01:18 EST    1.46 -99.99 -999 -999 -999 -99.9 -99.9 -999.9 -9.9 -9.999 -99.9 -99.99 -9.99
2020/02/26 01:24 EST    1.48   2.46    5  145    7  68.5  69.4 1014.1 -9.9 -9.999 -99.9 -99.99 -9.99
2020/02/26 01:30 EST    1.51 -99.99 -999 -999 -999 -99.9 -99.9 -999.9 -9.9 -9.999 -99.9 -99.99 -9.99
2020/02/26 01:36 EST    1.54 -99.99 -999 -999 -999 -99.9 -99.9 -999.9 -9.9 -9.999 -99.9 -99.99 -9.99
2020/02/26 01:42 EST    1.56 -99.99 -999 -999 -999 -99.9 -99.9 -999.9 -9.9 -9.999 -99.9 -99.99 -9.99
2020/02/26 01:48 EST    1.58   2.54    4  154    6  67.8  69.4 1014.0 -9.9 -9.999 -99.9 -99.99 -9.99
2020/02/26 01:54 EST    1.60   2.57    4  154    6  67.6  69.4 1013.9 -9.9 -9.999 -99.9 -99.99 -9.99
2020/02/26 02:00 EST    1.62   2.62    4  151    8  67.5  69.4 1013.9 -9.9 -9.999 -99.9 -99.99 -9.99
2020/02/26 02:06 EST    1.64 -99.99 -999 -999 -999 -99.9 -99.9 -999.9 -9.9 -9.999 -99.9 -99.99 -9.99
2020/02/26 02:12 EST    1.66   2.65    4  165    6  68.0  69.3 1013.9 -9.9 -9.999 -99.9 -99.99 -9.99
2020/02/26 02:18 EST    1.67   2.67    2  149    5  67.6  69.3 1013.8 -9.9 -9.999 -99.9 -99.99 -9.99
2020/02/26 02:24 EST    1.68   2.69    3  158    5  67.6  69.3 1013.7 -9.9 -9.999 -99.9 -99.99 -9.99
2020/02/26 02:30 EST    1.69   2.73    6  171    8  67.8  69.3 1013.6 -9.9 -9.999 -99.9 -99.99 -9.99
2020/02/26 02:36 EST    1.70   2.72    4  172    6  67.6  69.3 1013.5 -9.9 -9.999 -99.9 -99.99 -9.99
2020/02/26 02:42 EST    1.71 -99.99 -999 -999 -999 -99.9 -99.9 -999.9 -9.9 -9.999 -99.9 -99.99 -9.99
2020/02/26 02:48 EST    1.72   2.76    3  174    5  67.8  69.3 1013.5 -9.9 -9.999 -99.9 -99.99 -9.99
2020/02/26 02:54 EST    1.72   2.77    4  174    5  67.8  69.3 1013.6 -9.9 -9.999 -99.9 -99.99 -9.99
2020/02/26 03:00 EST    1.72   2.79    5  169    6  68.2  69.3 1013.6 -9.9 -9.999 -99.9 -99.99 -9.99
2020/02/26 03:06 EST    1.72   2.79    5  165    7  67.8  69.3 1013.6 -9.9 -9.999 -99.9 -99.99 -9.99
2020/02/26 03:12 EST    1.72   2.78    4  195    7  67.6  69.3 1013.6 -9.9 -9.999 -99.9 -99.99 -9.99
2020/02/26 03:18 EST    1.72   2.79    5  194    7  67.6  69.3 1013.5 -9.9 -9.999 -99.9 -99.99 -9.99
2020/02/26 03:24 EST    1.71   2.80    5  179    6  67.8  69.3 1013.5 -9.9 -9.999 -99.9 -99.99 -9.99
2020/02/26 03:30 EST    1.70   2.79    5  180    5  67.8  69.3 1013.4 -9.9 -9.999 -99.9 -99.99 -9.99
2020/02/26 03:36 EST    1.70   2.77    6  171    7  67.8  69.3 1013.4 -9.9 -9.999 -99.9 -99.99 -9.99
2020/02/26 03:42 EST    1.69   2.77    6  175    8  67.8  69.3 1013.2 -9.9 -9.999 -99.9 -99.99 -9.99
2020/02/26 03:48 EST    1.67   2.76    3  164    7  67.8  69.3 1013.2 -9.9 -9.999 -99.9 -99.99 -9.99
2020/02/26 03:54 EST    1.66   2.74    2  174    4  67.8  69.3 1013.2 -9.9 -9.999 -99.9 -99.99 -9.99
2020/02/26 04:00 EST    1.64   2.70    1  252    2  67.8  69.3 1013.2 -9.9 -9.999 -99.9 -99.99 -9.99
2020/02/26 04:06 EST    1.62   2.71    0  291    1  67.6  69.3 1013.1 -9.9 -9.999 -99.9 -99.99 -9.99
2020/02/26 04:12 EST    1.61   2.70    2  192    3  67.6  69.3 1013.2 -9.9 -9.999 -99.9 -99.99 -9.99
2020/02/26 04:18 EST    1.58   2.68    3  179    4  67.8  69.3 1013.2 -9.9 -9.999 -99.9 -99.99 -9.99
2020/02/26 04:24 EST    1.56   2.66    4  165    5  68.0  69.3 1013.1 -9.9 -9.999 -99.9 -99.99 -9.99
2020/02/26 04:30 EST    1.54   2.63    4  163    5  68.0  69.3 1013.1 -9.9 -9.999 -99.9 -99.99 -9.99
2020/02/26 04:36 EST    1.51   2.60    4  156    7  68.0  69.3 1013.1 -9.9 -9.999 -99.9 -99.99 -9.99
2020/02/26 04:42 EST    1.48   2.59    3  161    6  68.2  69.3 1013.0 -9.9 -9.999 -99.9 -99.99 -9.99
2020/02/26 04:48 EST    1.46   2.56    2  153    5  67.8  69.3 1013.0 -9.9 -9.999 -99.9 -99.99 -9.99
2020/02/26 04:54 EST    1.43   2.52    3  156    4  67.8  69.3 1013.0 -9.9 -9.999 -99.9 -99.99 -9.99
2020/02/26 05:00 EST    1.40   2.48    3  151    5  68.0  69.3 1012.9 -9.9 -9.999 -99.9 -99.99 -9.99
2020/02/26 05:06 EST    1.36   2.47    5  170    6  68.4  69.3 1013.0 -9.9 -9.999 -99.9 -99.99 -9.99
2020/02/26 05:12 EST    1.33   2.43    3  153    5  68.0  69.3 1013.0 -9.9 -9.999 -99.9 -99.99 -9.99
2020/02/26 05:18 EST    1.30   2.40    4  165    6  68.4  69.3 1013.0 -9.9 -9.999 -99.9 -99.99 -9.99
2020/02/26 05:24 EST    1.26   2.38    3  162    4  68.2  69.3 1013.0 -9.9 -9.999 -99.9 -99.99 -9.99
2020/02/26 05:30 EST    1.22   2.33    3  171    4  68.2  69.3 1013.0 -9.9 -9.999 -99.9 -99.99 -9.99
2020/02/26 05:36 EST    1.19   2.30    3  162    4  68.2  69.3 1013.0 -9.9 -9.999 -99.9 -99.99 -9.99
2020/02/26 05:42 EST    1.15   2.28    5  175    6  68.4  69.3 1013.1 -9.9 -9.999 -99.9 -99.99 -9.99
2020/02/26 05:48 EST    1.11   2.24    5  171    6  68.4  69.3 1013.1 -9.9 -9.999 -99.9 -99.99 -9.99
2020/02/26 05:54 EST    1.07   2.21    2  152    6  68.4  69.3 1012.8 -9.9 -9.999 -99.9 -99.99 -9.99
2020/02/26 06:00 EST    1.03   2.17    4  137    6  68.2  69.3 1012.4 -9.9 -9.999 -99.9 -99.99 -9.99
2020/02/26 06:06 EST    0.99   2.14    5  153    7  68.2  69.3 1012.4 -9.9 -9.999 -99.9 -99.99 -9.99
2020/02/26 06:12 EST    0.95   2.11    6  157    9  68.4  69.3 1012.6 -9.9 -9.999 -99.9 -99.99 -9.99
2020/02/26 06:18 EST    0.91   2.08   10  168   12  68.4  69.3 1012.7 -9.9 -9.999 -99.9 -99.99 -9.99
2020/02/26 06:24 EST    0.87   2.06    9  167   12  68.2  69.3 1012.6 -9.9 -9.999 -99.9 -99.99 -9.99
2020/02/26 06:30 EST    0.83   2.01    8  169   11  68.4  69.3 1012.4 -9.9 -9.999 -99.9 -99.99 -9.99
2020/02/26 06:36 EST    0.79   1.99    8  160   11  68.4  69.3 1012.4 -9.9 -9.999 -99.9 -99.99 -9.99
2020/02/26 06:42 EST    0.75   1.96    6  153   12  68.4  69.3 1012.4 -9.9 -9.999 -99.9 -99.99 -9.99
2020/02/26 06:48 EST    0.70   1.90    8  157   11  68.4  69.3 1012.5 -9.9 -9.999 -99.9 -99.99 -9.99
2020/02/26 06:54 EST    0.66   1.86    7  154   11  68.4  69.3 1012.5 -9.9 -9.999 -99.9 -99.99 -9.99
2020/02/26 07:00 EST    0.62   1.82    9  159   11  68.4  69.3 1012.4 -9.9 -9.999 -99.9 -99.99 -9.99
2020/02/26 07:06 EST    0.59   1.78   10  160   14  68.5  69.3 1012.5 -9.9 -9.999 -99.9 -99.99 -9.99
2020/02/26 07:12 EST    0.55   1.73    9  161   12  68.5  69.3 1012.4 -9.9 -9.999 -99.9 -99.99 -9.99
2020/02/26 07:18 EST    0.51   1.69   10  163   13  68.7  69.3 1012.5 -9.9 -9.999 -99.9 -99.99 -9.99
2020/02/26 07:24 EST    0.47   1.65   12  168   14  68.9  69.3 1012.6 -9.9 -9.999 -99.9 -99.99 -9.99
2020/02/26 07:30 EST    0.44   1.61    9  161   13  68.9  69.1 1012.6 -9.9 -9.999 -99.9 -99.99 -9.99
2020/02/26 07:36 EST    0.40   1.58    9  161   13  68.9  69.1 1012.6 -9.9 -9.999 -99.9 -99.99 -9.99
2020/02/26 07:42 EST    0.37   1.54    9  162   12  69.1  69.1 1012.5 -9.9 -9.999 -99.9 -99.99 -9.99
2020/02/26 07:48 EST    0.33   1.51   10  169   13  69.3  69.1 1012.5 -9.9 -9.999 -99.9 -99.99 -9.99
2020/02/26 07:54 EST    0.30   1.47   10  172   13  69.4  69.1 1012.5 -9.9 -9.999 -99.9 -99.99 -9.99
2020/02/26 08:00 EST    0.27   1.44   10  163   14  69.3  69.1 1012.5 -9.9 -9.999 -99.9 -99.99 -9.99
2020/02/26 08:06 EST    0.24   1.42   10  171   12  69.3  69.1 1012.5 -9.9 -9.999 -99.9 -99.99 -9.99
2020/02/26 08:12 EST    0.22   1.39   11  171   13  69.3  69.1 1012.4 -9.9 -9.999 -99.9 -99.99 -9.99
2020/02/26 08:18 EST    0.19   1.38   11  173   13  69.1  69.1 1012.4 -9.9 -9.999 -99.9 -99.99 -9.99
2020/02/26 08:24 EST    0.17   1.36   11  175   12  69.4  69.1 1012.3 -9.9 -9.999 -99.9 -99.99 -9.99
2020/02/26 08:30 EST    0.14   1.30   11  172   13  69.8  69.1 1012.3 -9.9 -9.999 -99.9 -99.99 -9.99
2020/02/26 08:36 EST    0.12   1.27   11  172   14  70.0  69.1 1012.4 -9.9 -9.999 -99.9 -99.99 -9.99
2020/02/26 08:42 EST    0.10   1.29   10  175   13  70.2  69.1 1012.5 -9.9 -9.999 -99.9 -99.99 -9.99
2020/02/26 08:48 EST    0.09   1.28   10  174   13  70.3  69.1 1012.8 -9.9 -9.999 -99.9 -99.99 -9.99
2020/02/26 08:54 EST    0.07   1.25   11  176   13  70.5  69.1 1012.9 -9.9 -9.999 -99.9 -99.99 -9.99
2020/02/26 09:00 EST    0.06   1.25   11  177   14  70.7  69.1 1012.9 -9.9 -9.999 -99.9 -99.99 -9.99
2020/02/26 09:06 EST    0.05   1.24   10  174   14  71.1  69.1 1013.1 -9.9 -9.999 -99.9 -99.99 -9.99
2020/02/26 09:12 EST    0.04   1.23    8  180   13  71.2  69.1 1013.1 -9.9 -9.999 -99.9 -99.99 -9.99
2020/02/26 09:18 EST    0.03   1.22   10  176   12  70.9  69.1 1013.0 -9.9 -9.999 -99.9 -99.99 -9.99
2020/02/26 09:24 EST    0.03   1.23    9  177   11  70.7  69.1 1013.1 -9.9 -9.999 -99.9 -99.99 -9.99
2020/02/26 09:30 EST    0.03   1.23   10  178   11  71.2  69.1 1013.1 -9.9 -9.999 -99.9 -99.99 -9.99
2020/02/26 09:36 EST    0.03   1.23   11  176   14  72.0  69.1 1013.2 -9.9 -9.999 -99.9 -99.99 -9.99
2020/02/26 09:42 EST    0.03   1.23   14  181   17  72.1  69.1 1013.3 -9.9 -9.999 -99.9 -99.99 -9.99
2020/02/26 09:48 EST    0.03   1.23   13  178   18  72.3  69.1 1013.1 -9.9 -9.999 -99.9 -99.99 -9.99
2020/02/26 09:54 EST    0.04   1.23   12  182   16  72.1  69.1 1013.1 -9.9 -9.999 -99.9 -99.99 -9.99
2020/02/26 10:00 EST    0.05   1.24   13  189   15  72.3  69.1 1013.4 -9.9 -9.999 -99.9 -99.99 -9.99
2020/02/26 10:06 EST    0.06   1.26   13  184   16  72.5  69.1 1013.5 -9.9 -9.999 -99.9 -99.99 -9.99
2020/02/26 10:12 EST    0.07   1.27   13  184   15  72.7  69.1 1013.5 -9.9 -9.999 -99.9 -99.99 -9.99
2020/02/26 10:18 EST    0.09   1.27   12  183   15  72.9  69.1 1013.5 -9.9 -9.999 -99.9 -99.99 -9.99
2020/02/26 10:24 EST    0.10   1.28   11  187   14  73.0  69.1 1013.7 -9.9 -9.999 -99.9 -99.99 -9.99
2020/02/26 10:30 EST    0.12   1.30   12  193   13  73.2  69.1 1013.7 -9.9 -9.999 -99.9 -99.99 -9.99
2020/02/26 10:36 EST    0.14   1.33   11  184   15  73.4  69.1 1013.5 -9.9 -9.999 -99.9 -99.99 -9.99
2020/02/26 10:42 EST    0.16   1.38   10  190   13  73.6  69.1 1013.6 -9.9 -9.999 -99.9 -99.99 -9.99
2020/02/26 10:48 EST    0.19   1.41   10  183   12  73.6  69.1 1013.5 -9.9 -9.999 -99.9 -99.99 -9.99
2020/02/26 10:54 EST    0.21   1.44   10  182   13  73.4  69.1 1013.4 -9.9 -9.999 -99.9 -99.99 -9.99
2020/02/26 11:00 EST    0.24   1.48   11  183   13  73.6  69.1 1013.5 -9.9 -9.999 -99.9 -99.99 -9.99
2020/02/26 11:06 EST    0.27 -99.99 -999 -999 -999 -99.9 -99.9 -999.9 -9.9 -9.999 -99.9 -99.99 -9.99
2020/02/26 11:12 EST    0.30   1.55    9  172   11  72.9  69.3 1013.0 -9.9 -9.999 -99.9 -99.99 -9.99
2020/02/26 11:18 EST    0.33 -99.99 -999 -999 -999 -99.9 -99.9 -999.9 -9.9 -9.999 -99.9 -99.99 -9.99
2020/02/26 11:24 EST    0.37   1.61    9  174   11  72.3  69.3 1013.2 -9.9 -9.999 -99.9 -99.99 -9.99
2020/02/26 11:30 EST    0.40   1.64    9  178   11  72.7  69.3 1013.3 -9.9 -9.999 -99.9 -99.99 -9.99
2020/02/26 11:36 EST    0.44   1.68    9  177   12  73.4  69.3 1013.2 -9.9 -9.999 -99.9 -99.99 -9.99
2020/02/26 11:42 EST    0.47   1.70    8  181   10  73.9  69.4 1013.3 -9.9 -9.999 -99.9 -99.99 -9.99
2020/02/26 11:48 EST    0.51   1.72    8  191    9  74.5  69.4 1013.4 -9.9 -9.999 -99.9 -99.99 -9.99
2020/02/26 11:54 EST    0.55   1.74    8  185    9  74.8  69.4 1013.2 -9.9 -9.999 -99.9 -99.99 -9.99
2020/02/26 12:00 EST    0.59 -99.99 -999 -999 -999 -99.9 -99.9 -999.9 -9.9 -9.999 -99.9 -99.99 -9.99
2020/02/26 12:06 EST    0.63   1.81    7  185    9  75.2  69.4 1012.9 -9.9 -9.999 -99.9 -99.99 -9.99
2020/02/26 12:12 EST    0.67   1.85    7  182    8  75.2  69.4 1012.9 -9.9 -9.999 -99.9 -99.99 -9.99
2020/02/26 12:18 EST    0.71   1.88    7  172    9  75.2  69.4 1012.6 -9.9 -9.999 -99.9 -99.99 -9.99
2020/02/26 12:24 EST    0.75   1.92    8  177   11  75.4  69.4 1012.4 -9.9 -9.999 -99.9 -99.99 -9.99
2020/02/26 12:30 EST    0.79   1.96    9  182   11  75.7  69.4 1012.3 -9.9 -9.999 -99.9 -99.99 -9.99
2020/02/26 12:36 EST    0.83   2.00    8  185   11  76.1  69.6 1012.2 -9.9 -9.999 -99.9 -99.99 -9.99
2020/02/26 12:42 EST    0.87   2.03    8  193   10  75.7  69.6 1012.1 -9.9 -9.999 -99.9 -99.99 -9.99
2020/02/26 12:48 EST    0.91   2.07   10  194   12  75.7  69.6 1012.2 -9.9 -9.999 -99.9 -99.99 -9.99
2020/02/26 12:54 EST    0.95   2.10   10  195   11  75.6  69.6 1012.2 -9.9 -9.999 -99.9 -99.99 -9.99
2020/02/26 13:00 EST    0.99   2.13    9  195   11  75.4  69.6 1012.1 -9.9 -9.999 -99.9 -99.99 -9.99
2020/02/26 13:06 EST    1.03   2.17   10  195   13  75.4  69.6 1012.0 -9.9 -9.999 -99.9 -99.99 -9.99
2020/02/26 13:12 EST    1.07   2.20    9  198   12  75.4  69.6 1012.1 -9.9 -9.999 -99.9 -99.99 -9.99
2020/02/26 13:18 EST    1.11   2.24   13  204   17  75.4  69.6 1012.1 -9.9 -9.999 -99.9 -99.99 -9.99
2020/02/26 13:24 EST    1.15   2.27   11  210   16  75.0  69.6 1011.9 -9.9 -9.999 -99.9 -99.99 -9.99
2020/02/26 13:30 EST    1.18   2.31   14  205   17  75.0  69.6 1011.8 -9.9 -9.999 -99.9 -99.99 -9.99
2020/02/26 13:36 EST    1.22   2.36   14  202   16  74.8  69.6 1011.6 -9.9 -9.999 -99.9 -99.99 -9.99
2020/02/26 13:42 EST    1.25   2.39   13  208   19  74.7  69.8 1011.8 -9.9 -9.999 -99.9 -99.99 -9.99
2020/02/26 13:48 EST    1.28 -99.99 -999 -999 -999 -99.9 -99.9 -999.9 -9.9 -9.999 -99.9 -99.99 -9.99
2020/02/26 13:54 EST    1.31 -99.99 -999 -999 -999 -99.9 -99.9 -999.9 -9.9 -9.999 -99.9 -99.99 -9.99
2020/02/26 14:00 EST    1.34   2.48   15  209   20  74.8  69.8 1011.3 -9.9 -9.999 -99.9 -99.99 -9.99
2020/02/26 14:06 EST    1.37   2.51   13  207   18  74.7  69.8 1011.2 -9.9 -9.999 -99.9 -99.99 -9.99
2020/02/26 14:12 EST    1.40   2.54   13  201   18  74.7  69.8 1011.1 -9.9 -9.999 -99.9 -99.99 -9.99
2020/02/26 14:18 EST    1.42   2.57   11  203   17  74.7  69.8 1011.1 -9.9 -9.999 -99.9 -99.99 -9.99
2020/02/26 14:24 EST    1.45   2.57   11  214   17  74.8  69.8 1011.4 -9.9 -9.999 -99.9 -99.99 -9.99
2020/02/26 14:30 EST    1.47   2.60   12  225   17  75.2  69.8 1011.6 -9.9 -9.999 -99.9 -99.99 -9.99
2020/02/26 14:36 EST    1.49   2.62   11  236   15  75.2  70.0 1011.6 -9.9 -9.999 -99.9 -99.99 -9.99
2020/02/26 14:42 EST    1.51   2.62   10  232   13  75.2  70.0 1011.7 -9.9 -9.999 -99.9 -99.99 -9.99
2020/02/26 14:48 EST    1.53   2.67    9  328   16  71.6  70.0 1012.4 -9.9 -9.999 -99.9 -99.99 -9.99
2020/02/26 14:54 EST    1.54   2.66   11  350   21  67.6  70.0 1012.3 -9.9 -9.999 -99.9 -99.99 -9.99
2020/02/26 15:00 EST    1.55   2.66    2  105   17  67.3  70.0 1012.5 -9.9 -9.999 -99.9 -99.99 -9.99
2020/02/26 15:06 EST    1.56   2.72   12  319   20  66.6  70.0 1012.5 -9.9 -9.999 -99.9 -99.99 -9.99
2020/02/26 15:12 EST    1.57   2.73    8  331   16  66.0  70.0 1012.5 -9.9 -9.999 -99.9 -99.99 -9.99
2020/02/26 15:18 EST    1.58   2.71    8  335   14  65.8  70.0 1012.5 -9.9 -9.999 -99.9 -99.99 -9.99
2020/02/26 15:24 EST    1.59   2.79    5  327   11  65.7  69.8 1012.8 -9.9 -9.999 -99.9 -99.99 -9.99
2020/02/26 15:30 EST    1.59   2.81    8  340   13  65.5  69.8 1013.1 -9.9 -9.999 -99.9 -99.99 -9.99
2020/02/26 15:36 EST    1.59   2.86    9  346   15  65.5  69.6 1013.2 -9.9 -9.999 -99.9 -99.99 -9.99
2020/02/26 15:42 EST    1.59   2.93    7  335   12  65.7  69.6 1013.3 -9.9 -9.999 -99.9 -99.99 -9.99
2020/02/26 15:48 EST    1.59   2.98    5  334   11  65.8  69.4 1013.3 -9.9 -9.999 -99.9 -99.99 -9.99
2020/02/26 15:54 EST    1.59   3.01    9  354   14  65.7  69.4 1012.8 -9.9 -9.999 -99.9 -99.99 -9.99
2020/02/26 16:00 EST    1.58   2.97    7  358   14  65.7  69.4 1012.8 -9.9 -9.999 -99.9 -99.99 -9.99
2020/02/26 16:06 EST    1.57   2.97    4  342   11  65.8  69.3 1013.0 -9.9 -9.999 -99.9 -99.99 -9.99
2020/02/26 16:12 EST    1.56   2.90    6  355   11  65.7  69.3 1013.0 -9.9 -9.999 -99.9 -99.99 -9.99
2020/02/26 16:18 EST    1.55   2.87    9  358   13  65.7  69.3 1012.8 -9.9 -9.999 -99.9 -99.99 -9.99
2020/02/26 16:24 EST    1.54   2.83    5  321    8  65.7  69.3 1013.3 -9.9 -9.999 -99.9 -99.99 -9.99
2020/02/26 16:30 EST    1.53   2.74    8   23   13  65.3  69.3 1012.5 -9.9 -9.999 -99.9 -99.99 -9.99
2020/02/26 16:36 EST    1.51   2.71    7  357   11  65.5  69.3 1013.0 -9.9 -9.999 -99.9 -99.99 -9.99
2020/02/26 16:42 EST    1.49   2.67    6  348    8  65.3  69.3 1013.3 -9.9 -9.999 -99.9 -99.99 -9.99
2020/02/26 16:48 EST    1.47   2.59    7  351   10  65.1  69.3 1013.3 -9.9 -9.999 -99.9 -99.99 -9.99
2020/02/26 16:54 EST    1.45 -99.99 -999 -999 -999 -99.9 -99.9 -999.9 -9.9 -9.999 -99.9 -99.99 -9.99
2020/02/26 17:00 EST    1.43   2.52    6   13    9  65.1  69.3 1013.4 -9.9 -9.999 -99.9 -99.99 -9.99
2020/02/26 17:06 EST    1.41   2.42    6   19    9  65.1  69.3 1013.3 -9.9 -9.999 -99.9 -99.99 -9.99
2020/02/26 17:12 EST    1.38   2.43    5   20    9  65.3  69.3 1013.3 -9.9 -9.999 -99.9 -99.99 -9.99
2020/02/26 17:18 EST    1.36   2.41    7   20    9  65.1  69.3 1013.2 -9.9 -9.999 -99.9 -99.99 -9.99
2020/02/26 17:24 EST    1.33   2.33    5    9   10  65.1  69.3 1013.1 -9.9 -9.999 -99.9 -99.99 -9.99
2020/02/26 17:30 EST    1.30   2.32    4  348    7  65.1  69.3 1013.6 -9.9 -9.999 -99.9 -99.99 -9.99
2020/02/26 17:36 EST    1.27   2.32    4  343    7  64.9  69.3 1013.7 -9.9 -9.999 -99.9 -99.99 -9.99
2020/02/26 17:42 EST    1.24   2.23    6  350   10  64.8  69.3 1013.7 -9.9 -9.999 -99.9 -99.99 -9.99
2020/02/26 17:48 EST    1.21   2.21    6  354    9  64.8  69.3 1013.6 -9.9 -9.999 -99.9 -99.99 -9.99
2020/02/26 17:54 EST    1.18   2.19    5  355    9  64.8  69.3 1013.8 -9.9 -9.999 -99.9 -99.99 -9.99
2020/02/26 18:00 EST    1.15   2.13    6  359    8  64.6  69.3 1013.6 -9.9 -9.999 -99.9 -99.99 -9.99
2020/02/26 18:06 EST    1.12   2.11    6   17    9  64.6  69.3 1013.0 -9.9 -9.999 -99.9 -99.99 -9.99
2020/02/26 18:12 EST    1.08   2.12    3   11    8  64.8  69.3 1013.6 -9.9 -9.999 -99.9 -99.99 -9.99
2020/02/26 18:18 EST    1.05   2.09    2   30    5  64.8  69.3 1013.8 -9.9 -9.999 -99.9 -99.99 -9.99
2020/02/26 18:24 EST    1.02   2.04    4   27    5  64.6  69.3 1013.7 -9.9 -9.999 -99.9 -99.99 -9.99
2020/02/26 18:30 EST    0.98   2.01    4   20    6  64.6  69.3 1013.5 -9.9 -9.999 -99.9 -99.99 -9.99
2020/02/26 18:36 EST    0.95   1.98    4   13    6  64.6  69.3 1013.6 -9.9 -9.999 -99.9 -99.99 -9.99
2020/02/26 18:42 EST    0.92   1.93    5   24    7  64.6  69.3 1013.3 -9.9 -9.999 -99.9 -99.99 -9.99
2020/02/26 18:48 EST    0.88   1.91    4   33    7  64.8  69.3 1013.3 -9.9 -9.999 -99.9 -99.99 -9.99
2020/02/26 18:54 EST    0.85   1.88    4    7    7  64.8  69.3 1013.8 -9.9 -9.999 -99.9 -99.99 -9.99
2020/02/26 19:00 EST    0.81   1.81    2  331    6  64.8  69.3 1014.2 -9.9 -9.999 -99.9 -99.99 -9.99
2020/02/26 19:06 EST    0.78   1.76    5  280    7  64.8  69.3 1014.8 -9.9 -9.999 -99.9 -99.99 -9.99
2020/02/26 19:12 EST    0.75   1.71    3  260    8  64.8  69.3 1014.6 -9.9 -9.999 -99.9 -99.99 -9.99
2020/02/26 19:18 EST    0.71   1.66    2  321    3  64.8  69.3 1014.2 -9.9 -9.999 -99.9 -99.99 -9.99
2020/02/26 19:24 EST    0.68   1.60    4  359    7  64.6  69.3 1014.0 -9.9 -9.999 -99.9 -99.99 -9.99
2020/02/26 19:30 EST    0.65   1.56    3  337    7  64.6  69.3 1014.6 -9.9 -9.999 -99.9 -99.99 -9.99
2020/02/26 19:36 EST    0.62   1.51    2  286    4  64.8  69.3 1015.0 -9.9 -9.999 -99.9 -99.99 -9.99
2020/02/26 19:42 EST    0.59   1.49    4  305    4  64.8  69.3 1014.7 -9.9 -9.999 -99.9 -99.99 -9.99
2020/02/26 19:48 EST    0.56   1.46    3  313    5  64.8  69.3 1014.5 -9.9 -9.999 -99.9 -99.99 -9.99
2020/02/26 19:54 EST    0.53   1.40    2   36    4  64.8  69.3 1014.1 -9.9 -9.999 -99.9 -99.99 -9.99
2020/02/26 20:00 EST    0.50   1.37    1  345    4  64.6  69.3 1014.1 -9.9 -9.999 -99.9 -99.99 -9.99
2020/02/26 20:06 EST    0.48 -99.99 -999 -999 -999 -99.9 -99.9 -999.9 -9.9 -9.999 -99.9 -99.99 -9.99
2020/02/26 20:12 EST    0.45   1.33    1    3    4  64.8  69.3 1014.5 -9.9 -9.999 -99.9 -99.99 -9.99
2020/02/26 20:18 EST    0.43   1.31    4  316    5  64.9  69.3 1014.8 -9.9 -9.999 -99.9 -99.99 -9.99
2020/02/26 20:24 EST    0.41   1.30    4  315    7  64.9  69.3 1014.7 -9.9 -9.999 -99.9 -99.99 -9.99
2020/02/26 20:30 EST    0.38   1.26    5  312    7  64.9  69.3 1015.0 -9.9 -9.999 -99.9 -99.99 -9.99
2020/02/26 20:36 EST    0.36   1.22    5  298    7  64.9  69.3 1015.2 -9.9 -9.999 -99.9 -99.99 -9.99
2020/02/26 20:42 EST    0.35   1.20    6  294    8  64.9  69.3 1015.5 -9.9 -9.999 -99.9 -99.99 -9.99
2020/02/26 20:48 EST    0.33   1.16    7  271    9  64.9  69.3 1015.7 -9.9 -9.999 -99.9 -99.99 -9.99
2020/02/26 20:54 EST    0.31   1.13    6  291   10  64.9  69.3 1015.5 -9.9 -9.999 -99.9 -99.99 -9.99
2020/02/26 21:00 EST    0.30   1.13    6  288    7  64.8  69.3 1015.6 -9.9 -9.999 -99.9 -99.99 -9.99
2020/02/26 21:06 EST    0.29   1.13    6  324    9  64.2  69.3 1015.1 -9.9 -9.999 -99.9 -99.99 -9.99
2020/02/26 21:12 EST    0.28   1.12    6  306   10  63.9  69.3 1015.1 -9.9 -9.999 -99.9 -99.99 -9.99
2020/02/26 21:18 EST    0.27   1.12   10  293   13  63.5  69.3 1015.7 -9.9 -9.999 -99.9 -99.99 -9.99
2020/02/26 21:24 EST    0.26   1.12    8  301   12  63.5  69.3 1015.7 -9.9 -9.999 -99.9 -99.99 -9.99
2020/02/26 21:30 EST    0.26   1.11    7  322   12  63.1  69.3 1015.8 -9.9 -9.999 -99.9 -99.99 -9.99
2020/02/26 21:36 EST    0.25   1.10    4  322   11  63.1  69.3 1015.5 -9.9 -9.999 -99.9 -99.99 -9.99
2020/02/26 21:42 EST    0.25   1.09    5  316    9  62.8  69.3 1015.2 -9.9 -9.999 -99.9 -99.99 -9.99
2020/02/26 21:48 EST    0.25   1.06    5  303    8  63.1  69.3 1015.8 -9.9 -9.999 -99.9 -99.99 -9.99
2020/02/26 21:54 EST    0.25   1.03    5  301    7  63.0  69.3 1016.0 -9.9 -9.999 -99.9 -99.99 -9.99
2020/02/26 22:00 EST    0.26   1.05    4  324    8  62.8  69.3 1015.8 -9.9 -9.999 -99.9 -99.99 -9.99
2020/02/26 22:06 EST    0.26   1.06    6  311   11  62.6  69.3 1015.8 -9.9 -9.999 -99.9 -99.99 -9.99
2020/02/26 22:12 EST    0.27   1.07    5  318    8  62.6  69.3 1015.7 -9.9 -9.999 -99.9 -99.99 -9.99
2020/02/26 22:18 EST    0.28   1.09    4  322    8  62.4  69.3 1015.8 -9.9 -9.999 -99.9 -99.99 -9.99
2020/02/26 22:24 EST    0.29   1.09    6  320    8  62.4  69.3 1016.2 -9.9 -9.999 -99.9 -99.99 -9.99
2020/02/26 22:30 EST    0.30   1.09    5  317    9  62.4  69.3 1016.3 -9.9 -9.999 -99.9 -99.99 -9.99
2020/02/26 22:36 EST    0.32   1.07    5  315   10  62.6  69.3 1016.6 -9.9 -9.999 -99.9 -99.99 -9.99
2020/02/26 22:42 EST    0.33   1.04    8  308   11  62.4  69.3 1016.8 -9.9 -9.999 -99.9 -99.99 -9.99
2020/02/26 22:48 EST    0.35   1.05    7  299   10  62.6  69.3 1016.7 -9.9 -9.999 -99.9 -99.99 -9.99
2020/02/26 22:54 EST    0.37   1.02    7  320   10  62.4  69.3 1016.5 -9.9 -9.999 -99.9 -99.99 -9.99
2020/02/26 23:00 EST    0.39   0.98    7  296   11  62.2  69.3 1016.4 -9.9 -9.999 -99.9 -99.99 -9.99
2020/02/26 23:06 EST    0.41 -99.99 -999 -999 -999 -99.9 -99.9 -999.9 -9.9 -9.999 -99.9 -99.99 -9.99
2020/02/26 23:12 EST    0.44   1.05    4  337    8  61.9  69.3 1015.9 -9.9 -9.999 -99.9 -99.99 -9.99
2020/02/26 23:18 EST    0.46   1.02    9  297   10  62.1  69.3 1016.9 -9.9 -9.999 -99.9 -99.99 -9.99
2020/02/26 23:24 EST    0.49 -99.99 -999 -999 -999 -99.9 -99.9 -999.9 -9.9 -9.999 -99.9 -99.99 -9.99
2020/02/26 23:30 EST    0.51   1.10   10  297   14  62.1  69.3 1017.4 -9.9 -9.999 -99.9 -99.99 -9.99
2020/02/26 23:36 EST    0.54   1.12    9  323   14  61.7  69.3 1017.1 -9.9 -9.999 -99.9 -99.99 -9.99
2020/02/26 23:42 EST    0.57   1.15    6  322   13  61.7  69.3 1017.0 -9.9 -9.999 -99.9 -99.99 -9.99
2020/02/26 23:48 EST    0.60   1.21    6  316   14  62.1  69.3 1017.2 -9.9 -9.999 -99.9 -99.99 -9.99
2020/02/26 23:54 EST    0.63   1.22    6  330    9  61.5  69.1 1016.9 -9.9 -9.999 -99.9 -99.99 -9.99
2020/02/27 00:00 EST    0.66   1.27    7  352   16  61.2  69.1 1016.8 -9.9 -9.999 -99.9 -99.99 -9.99
2020/02/27 00:06 EST    0.70   1.35   11  321   16  61.0  69.1 1017.5 -9.9 -9.999 -99.9 -99.99 -9.99
2020/02/27 00:12 EST    0.73   1.41   11  348   17  60.4  69.1 1017.1 -9.9 -9.999 -99.9 -99.99 -9.99
2020/02/27 00:18 EST    0.76   1.43    8  342   15  60.3  69.1 1016.9 -9.9 -9.999 -99.9 -99.99 -9.99
2020/02/27 00:24 EST    0.80   1.49   10  345   15  60.1  69.1 1016.7 -9.9 -9.999 -99.9 -99.99 -9.99
2020/02/27 00:30 EST    0.83   1.53    7  329   14  60.3  69.1 1017.3 -9.9 -9.999 -99.9 -99.99 -9.99
2020/02/27 00:36 EST    0.87 -99.99 -999 -999 -999 -99.9 -99.9 -999.9 -9.9 -9.999 -99.9 -99.99 -9.99
2020/02/27 00:42 EST    0.90   1.58    7  330   12  59.9  69.1 1017.2 -9.9 -9.999 -99.9 -99.99 -9.99
2020/02/27 00:48 EST    0.93   1.64    7  321   13  59.9  69.1 1017.3 -9.9 -9.999 -99.9 -99.99 -9.99
2020/02/27 00:54 EST    0.97   1.64    4  336   12  59.7  69.1 1017.1 -9.9 -9.999 -99.9 -99.99 -9.99
2020/02/27 01:00 EST    1.00   1.72   10  343   14  59.2  69.1 1017.2 -9.9 -9.999 -99.9 -99.99 -9.99
2020/02/27 01:06 EST    1.04   1.78    5  326   10  59.2  69.1 1017.8 -9.9 -9.999 -99.9 -99.99 -9.99
2020/02/27 01:12 EST    1.07   1.78    4  337   11  59.0  68.9 1017.7 -9.9 -9.999 -99.9 -99.99 -9.99
2020/02/27 01:18 EST    1.10   1.85   10  344   16  58.8  68.9 1017.6 -9.9 -9.999 -99.9 -99.99 -9.99
2020/02/27 01:24 EST    1.14   1.85    5    1   13  58.8  68.9 1017.6 -9.9 -9.999 -99.9 -99.99 -9.99
2020/02/27 01:30 EST    1.17   1.82    6  320   14  59.0  68.9 1017.9 -9.9 -9.999 -99.9 -99.99 -9.99
2020/02/27 01:36 EST    1.20   1.84    5  342    8  58.8  68.9 1017.8 -9.9 -9.999 -99.9 -99.99 -9.99
2020/02/27 01:42 EST    1.23 -99.99 -999 -999 -999 -99.9 -99.9 -999.9 -9.9 -9.999 -99.9 -99.99 -9.99
2020/02/27 01:48 EST    1.26   1.87    5  349    8  58.6  68.9 1017.9 -9.9 -9.999 -99.9 -99.99 -9.99
2020/02/27 01:54 EST    1.29   1.91    6  343   11  58.5  68.9 1018.0 -9.9 -9.999 -99.9 -99.99 -9.99
2020/02/27 02:00 EST    1.32   1.92    8  344   14  58.1  68.9 1018.1 -9.9 -9.999 -99.9 -99.99 -9.99
2020/02/27 02:06 EST    1.34   1.91    8    8   11  57.7  68.7 1017.0 -9.9 -9.999 -99.9 -99.99 -9.99
2020/02/27 02:12 EST    1.37   1.91    6  327   12  57.9  68.7 1017.9 -9.9 -9.999 -99.9 -99.99 -9.99
2020/02/27 02:18 EST    1.39   1.94    7  359   10  57.7  68.7 1017.4 -9.9 -9.999 -99.9 -99.99 -9.99
2020/02/27 02:24 EST    1.41   1.93    5  324   11  58.1  68.7 1017.9 -9.9 -9.999 -99.9 -99.99 -9.99
2020/02/27 02:30 EST    1.44   1.93    6  357   10  57.7  68.7 1017.0 -9.9 -9.999 -99.9 -99.99 -9.99
2020/02/27 02:36 EST    1.46   1.95    7  355   11  57.7  68.7 1017.1 -9.9 -9.999 -99.9 -99.99 -9.99
2020/02/27 02:42 EST    1.47   1.94    8  341   12  57.7  68.7 1017.3 -9.9 -9.999 -99.9 -99.99 -9.99
2020/02/27 02:48 EST    1.49   1.94    8  338   15  57.7  68.5 1017.1 -9.9 -9.999 -99.9 -99.99 -9.99
2020/02/27 02:54 EST    1.51 -99.99 -999 -999 -999 -99.9 -99.9 -999.9 -9.9 -9.999 -99.9 -99.99 -9.99
2020/02/27 03:00 EST    1.52   1.99    4  333   11  58.1  68.5 1017.6 -9.9 -9.999 -99.9 -99.99 -9.99
2020/02/27 03:06 EST    1.53 -99.99 -999 -999 -999 -99.9 -99.9 -999.9 -9.9 -9.999 -99.9 -99.99 -9.99
2020/02/27 03:12 EST    1.54   1.97    6  349   10  58.1  68.5 1017.5 -9.9 -9.999 -99.9 -99.99 -9.99
2020/02/27 03:18 EST    1.55   1.95    9  343   14  58.3  68.5 1017.7 -9.9 -9.999 -99.9 -99.99 -9.99
2020/02/27 03:24 EST    1.56   1.95    8  349   11  58.3  68.5 1017.7 -9.9 -9.999 -99.9 -99.99 -9.99
2020/02/27 03:30 EST    1.56   1.94    8  337   13  58.3  68.5 1017.9 -9.9 -9.999 -99.9 -99.99 -9.99
2020/02/27 03:36 EST    1.57   1.93    9  336   15  58.1  68.5 1017.8 -9.9 -9.999 -99.9 -99.99 -9.99
2020/02/27 03:42 EST    1.57   1.90    5  348   16  58.1  68.4 1017.7 -9.9 -9.999 -99.9 -99.99 -9.99
2020/02/27 03:48 EST    1.57   1.89    6  338   14  57.9  68.4 1017.6 -9.9 -9.999 -99.9 -99.99 -9.99
2020/02/27 03:54 EST    1.57   1.90    7  340   11  57.7  68.4 1017.8 -9.9 -9.999 -99.9 -99.99 -9.99
2020/02/27 04:00 EST    1.56   1.89    9  343   16  57.7  68.4 1017.7 -9.9 -9.999 -99.9 -99.99 -9.99
2020/02/27 04:06 EST    1.56   1.87    9  337   13  57.6  68.4 1017.8 -9.9 -9.999 -99.9 -99.99 -9.99
2020/02/27 04:12 EST    1.55   1.86    6  344   17  57.6  68.4 1017.6 -9.9 -9.999 -99.9 -99.99 -9.99
2020/02/27 04:18 EST    1.54   1.83    9  346   16  57.2  68.4 1017.7 -9.9 -9.999 -99.9 -99.99 -9.99
2020/02/27 04:24 EST    1.53   1.81   10  353   17  57.2  68.2 1017.8 -9.9 -9.999 -99.9 -99.99 -9.99
2020/02/27 04:30 EST    1.52   1.80    7  351   14  57.0  68.2 1017.9 -9.9 -9.999 -99.9 -99.99 -9.99
2020/02/27 04:36 EST    1.51   1.80   10  359   14  56.8  68.2 1018.2 -9.9 -9.999 -99.9 -99.99 -9.99
2020/02/27 04:42 EST    1.49   1.77    9  350   15  56.8  68.2 1018.4 -9.9 -9.999 -99.9 -99.99 -9.99
2020/02/27 04:48 EST    1.48   1.73   11  359   16  56.5  68.4 1018.3 -9.9 -9.999 -99.9 -99.99 -9.99
2020/02/27 04:54 EST    1.46   1.74    9  359   17  56.3  68.4 1018.5 -9.9 -9.999 -99.9 -99.99 -9.99
2020/02/27 05:00 EST    1.44   1.71    7  349   15  56.3  68.4 1018.6 -9.9 -9.999 -99.9 -99.99 -9.99
2020/02/27 05:06 EST    1.42   1.66    8  351   14  56.1  68.4 1018.7 -9.9 -9.999 -99.9 -99.99 -9.99
2020/02/27 05:12 EST    1.40   1.65    7  348   13  55.9  68.4 1018.8 -9.9 -9.999 -99.9 -99.99 -9.99
2020/02/27 05:18 EST    1.37   1.60   11  353   15  55.9  68.5 1018.7 -9.9 -9.999 -99.9 -99.99 -9.99
2020/02/27 05:24 EST    1.35   1.56    6  355   11  55.8  68.5 1018.9 -9.9 -9.999 -99.9 -99.99 -9.99
2020/02/27 05:30 EST    1.32   1.55    9  352   13  55.8  68.5 1019.0 -9.9 -9.999 -99.9 -99.99 -9.99
2020/02/27 05:36 EST    1.30   1.51    5  346   12  55.8  68.5 1019.1 -9.9 -9.999 -99.9 -99.99 -9.99
2020/02/27 05:42 EST    1.27   1.46    7  352   11  55.6  68.5 1019.1 -9.9 -9.999 -99.9 -99.99 -9.99
2020/02/27 05:48 EST    1.24   1.41    9  344   12  55.6  68.5 1019.2 -9.9 -9.999 -99.9 -99.99 -9.99
2020/02/27 05:54 EST    1.21   1.37    8  345   14  55.4  68.5 1019.3 -9.9 -9.999 -99.9 -99.99 -9.99
2020/02/27 06:00 EST    1.18   1.33    7  351   11  55.4  68.5 1019.5 -9.9 -9.999 -99.9 -99.99 -9.99
2020/02/27 06:06 EST    1.15   1.28    7  348   13  55.4  68.5 1019.5 -9.9 -9.999 -99.9 -99.99 -9.99
2020/02/27 06:12 EST    1.12   1.24    9  350   13  55.4  68.5 1019.6 -9.9 -9.999 -99.9 -99.99 -9.99
2020/02/27 06:18 EST    1.09   1.20    9  334   16  55.4  68.5 1019.7 -9.9 -9.999 -99.9 -99.99 -9.99
2020/02/27 06:24 EST    1.05   1.16    8  346   12  55.2  68.5 1020.0 -9.9 -9.999 -99.9 -99.99 -9.99
2020/02/27 06:30 EST    1.02   1.13    9    1   15  55.2  68.5 1019.9 -9.9 -9.999 -99.9 -99.99 -9.99
2020/02/27 06:36 EST    0.99   1.10    6  349   12  55.2  68.5 1020.0 -9.9 -9.999 -99.9 -99.99 -9.99
2020/02/27 06:42 EST    0.95   1.06    6  358   10  55.0  68.5 1020.0 -9.9 -9.999 -99.9 -99.99 -9.99
2020/02/27 06:48 EST    0.92   1.01    9  348   14  54.9  68.5 1020.1 -9.9 -9.999 -99.9 -99.99 -9.99
2020/02/27 06:54 EST    0.88 -99.99 -999 -999 -999 -99.9 -99.9 -999.9 -9.9 -9.999 -99.9 -99.99 -9.99
2020/02/27 07:00 EST    0.85   0.96    9  353   17  54.9  68.5 1020.4 -9.9 -9.999 -99.9 -99.99 -9.99
2020/02/27 07:06 EST    0.81   0.91    9  353   18  54.7  68.5 1020.6 -9.9 -9.999 -99.9 -99.99 -9.99
2020/02/27 07:12 EST    0.78   0.89    9  353   15  54.7  68.5 1020.6 -9.9 -9.999 -99.9 -99.99 -9.99
2020/02/27 07:18 EST    0.75   0.85    8  355   14  54.5  68.5 1020.7 -9.9 -9.999 -99.9 -99.99 -9.99
2020/02/27 07:24 EST    0.71   0.81   10  351   17  54.5  68.5 1020.8 -9.9 -9.999 -99.9 -99.99 -9.99
2020/02/27 07:30 EST    0.68   0.77   12    0   16  54.3  68.5 1020.9 -9.9 -9.999 -99.9 -99.99 -9.99
2020/02/27 07:36 EST    0.65   0.75   11  355   18  54.3  68.5 1021.0 -9.9 -9.999 -99.9 -99.99 -9.99
2020/02/27 07:42 EST    0.61   0.72    9  354   19  54.1  68.5 1021.1 -9.9 -9.999 -99.9 -99.99 -9.99
2020/02/27 07:48 EST    0.58   0.68    8  349   17  54.3  68.5 1021.2 -9.9 -9.999 -99.9 -99.99 -9.99
2020/02/27 07:54 EST    0.55   0.64   11    6   16  54.5  68.5 1021.2 -9.9 -9.999 -99.9 -99.99 -9.99
2020/02/27 08:00 EST    0.52 -99.99 -999 -999 -999 -99.9 -99.9 -999.9 -9.9 -9.999 -99.9 -99.99 -9.99
2020/02/27 08:06 EST    0.49 -99.99 -999 -999 -999 -99.9 -99.9 -999.9 -9.9 -9.999 -99.9 -99.99 -9.99
2020/02/27 08:12 EST    0.46   0.55   10  346   17  54.5  68.4 1021.5 -9.9 -9.999 -99.9 -99.99 -9.99
2020/02/27 08:18 EST    0.44   0.52   11  358   16  54.7  68.4 1021.6 -9.9 -9.999 -99.9 -99.99 -9.99
2020/02/27 08:24 EST    0.41   0.50   12  353   17  55.0  68.4 1021.8 -9.9 -9.999 -99.9 -99.99 -9.99
2020/02/27 08:30 EST    0.39   0.46    7  348   14  55.6  68.4 1021.9 -9.9 -9.999 -99.9 -99.99 -9.99
2020/02/27 08:36 EST    0.36   0.43    6  343   14  55.4  68.4 1022.0 -9.9 -9.999 -99.9 -99.99 -9.99
2020/02/27 08:42 EST    0.34   0.40    9  355   15  55.6  68.4 1022.1 -9.9 -9.999 -99.9 -99.99 -9.99
2020/02/27 08:48 EST    0.32   0.36    8    3   14  55.6  68.4 1022.0 -9.9 -9.999 -99.9 -99.99 -9.99
2020/02/27 08:54 EST    0.30   0.34    7  353   13  55.8  68.4 1022.1 -9.9 -9.999 -99.9 -99.99 -9.99
2020/02/27 09:00 EST    0.28   0.31    7  354   13  55.6  68.2 1022.2 -9.9 -9.999 -99.9 -99.99 -9.99
2020/02/27 09:06 EST    0.27   0.29   10  358   15  55.6  68.2 1022.3 -9.9 -9.999 -99.9 -99.99 -9.99
2020/02/27 09:12 EST    0.25   0.28    6   11   12  56.3  68.2 1022.4 -9.9 -9.999 -99.9 -99.99 -9.99
2020/02/27 09:18 EST    0.24   0.26    7    0   16  56.5  68.2 1022.6 -9.9 -9.999 -99.9 -99.99 -9.99
2020/02/27 09:24 EST    0.23   0.23    9  324   13  56.1  68.2 1022.7 -9.9 -9.999 -99.9 -99.99 -9.99
2020/02/27 09:30 EST    0.22   0.23    9  333   15  55.9  68.2 1022.7 -9.9 -9.999 -99.9 -99.99 -9.99
2020/02/27 09:36 EST    0.21   0.18    8  333   14  56.1  68.2 1022.8 -9.9 -9.999 -99.9 -99.99 -9.99
2020/02/27 09:42 EST    0.21   0.17    9  359   17  55.4  68.2 1022.8 -9.9 -9.999 -99.9 -99.99 -9.99
2020/02/27 09:48 EST    0.21   0.16   11  347   16  55.2  68.2 1022.9 -9.9 -9.999 -99.9 -99.99 -9.99
2020/02/27 09:54 EST    0.20   0.12    9  341   17  55.2  68.2 1022.9 -9.9 -9.999 -99.9 -99.99 -9.99
2020/02/27 10:00 EST    0.20   0.15    8    4   14  55.8  68.2 1023.0 -9.9 -9.999 -99.9 -99.99 -9.99
2020/02/27 10:06 EST    0.21   0.13   10  337   17  55.2  68.2 1023.1 -9.9 -9.999 -99.9 -99.99 -9.99
2020/02/27 10:12 EST    0.21   0.13    9    7   13  54.9  68.2 1023.1 -9.9 -9.999 -99.9 -99.99 -9.99
2020/02/27 10:18 EST    0.22   0.16    9  354   14  55.2  68.2 1023.1 -9.9 -9.999 -99.9 -99.99 -9.99
2020/02/27 10:24 EST    0.23   0.14    8  351   15  55.2  68.2 1023.1 -9.9 -9.999 -99.9 -99.99 -9.99
2020/02/27 10:30 EST    0.24   0.16    7  350   15  55.0  68.2 1023.1 -9.9 -9.999 -99.9 -99.99 -9.99
2020/02/27 10:36 EST    0.25   0.18    5  331   14  55.4  68.2 1023.0 -9.9 -9.999 -99.9 -99.99 -9.99
2020/02/27 10:42 EST    0.26   0.18    4  338    8  55.8  68.2 1023.0 -9.9 -9.999 -99.9 -99.99 -9.99
2020/02/27 10:48 EST    0.28   0.20    8  358   12  55.2  68.2 1023.1 -9.9 -9.999 -99.9 -99.99 -9.99
2020/02/27 10:54 EST    0.30   0.22    8  347   13  55.6  68.2 1023.0 -9.9 -9.999 -99.9 -99.99 -9.99
2020/02/27 11:00 EST    0.32   0.23    9  354   13  55.2  68.2 1023.0 -9.9 -9.999 -99.9 -99.99 -9.99
2020/02/27 11:06 EST    0.34   0.25   12  339   16  54.9  68.2 1023.1 -9.9 -9.999 -99.9 -99.99 -9.99
2020/02/27 11:12 EST    0.36   0.27   10    4   15  55.4  68.2 1023.1 -9.9 -9.999 -99.9 -99.99 -9.99
2020/02/27 11:18 EST    0.39   0.27    7  347   16  55.2  68.2 1023.0 -9.9 -9.999 -99.9 -99.99 -9.99
2020/02/27 11:24 EST    0.42   0.29    6  335   10  55.6  68.4 1023.0 -9.9 -9.999 -99.9 -99.99 -9.99
2020/02/27 11:30 EST    0.44   0.31    8  343   13  55.4  68.4 1023.0 -9.9 -9.999 -99.9 -99.99 -9.99
2020/02/27 11:36 EST    0.47   0.31    5  341   13  55.6  68.4 1022.9 -9.9 -9.999 -99.9 -99.99 -9.99
2020/02/27 11:42 EST    0.50   0.36    7    7   12  55.2  68.4 1023.0 -9.9 -9.999 -99.9 -99.99 -9.99
2020/02/27 11:48 EST    0.54   0.39    9  342   14  54.9  68.4 1022.9 -9.9 -9.999 -99.9 -99.99 -9.99
2020/02/27 11:54 EST    0.57   0.40    7   10   11  55.2  68.2 1022.9 -9.9 -9.999 -99.9 -99.99 -9.99
2020/02/27 12:00 EST    0.60   0.43    5  314   12  56.1  68.2 1022.8 -9.9 -9.999 -99.9 -99.99 -9.99
2020/02/27 12:06 EST    0.64   0.46    7   12   11  56.1  68.2 1022.8 -9.9 -9.999 -99.9 -99.99 -9.99
2020/02/27 12:12 EST    0.67   0.48    7  342   12  55.8  68.2 1022.8 -9.9 -9.999 -99.9 -99.99 -9.99
2020/02/27 12:18 EST    0.71   0.51    7  330   11  55.4  68.2 1022.7 -9.9 -9.999 -99.9 -99.99 -9.99
2020/02/27 12:24 EST    0.75   0.54    7  339   10  55.9  68.2 1022.7 -9.9 -9.999 -99.9 -99.99 -9.99
2020/02/27 12:30 EST    0.79   0.55    7  348   11  55.9  68.2 1022.6 -9.9 -9.999 -99.9 -99.99 -9.99
2020/02/27 12:36 EST    0.83   0.57    7    1   11  55.8  68.2 1022.6 -9.9 -9.999 -99.9 -99.99 -9.99
2020/02/27 12:42 EST    0.87   0.60    7  332   11  55.4  68.2 1022.6 -9.9 -9.999 -99.9 -99.99 -9.99
2020/02/27 12:48 EST    0.90   0.63    5    8   10  55.6  68.2 1022.5 -9.9 -9.999 -99.9 -99.99 -9.99
2020/02/27 12:54 EST    0.94   0.65    5  321   13  55.9  68.2 1022.4 -9.9 -9.999 -99.9 -99.99 -9.99
2020/02/27 13:00 EST    0.98   0.67    6  326   12  56.8  68.2 1022.3 -9.9 -9.999 -99.9 -99.99 -9.99
2020/02/27 13:06 EST    1.02   0.70    8  331   13  56.8  68.4 1022.3 -9.9 -9.999 -99.9 -99.99 -9.99
2020/02/27 13:12 EST    1.06   0.75    5  331   11  58.3  68.4 1022.2 -9.9 -9.999 -99.9 -99.99 -9.99
2020/02/27 13:18 EST    1.10   0.76    7  325   14  57.0  68.4 1022.2 -9.9 -9.999 -99.9 -99.99 -9.99
2020/02/27 13:24 EST    1.14   0.80    8  307   12  56.3  68.4 1022.1 -9.9 -9.999 -99.9 -99.99 -9.99
2020/02/27 13:30 EST    1.18   0.84    6  308   12  57.0  68.4 1022.0 -9.9 -9.999 -99.9 -99.99 -9.99
2020/02/27 13:36 EST    1.22   0.88    9  317   14  56.8  68.4 1022.0 -9.9 -9.999 -99.9 -99.99 -9.99
2020/02/27 13:42 EST    1.25   0.90    8  325   14  57.0  68.4 1022.0 -9.9 -9.999 -99.9 -99.99 -9.99
2020/02/27 13:48 EST    1.29   0.94    8  331   15  56.7  68.4 1021.9 -9.9 -9.999 -99.9 -99.99 -9.99
2020/02/27 13:54 EST    1.32   0.96   12  312   18  56.8  68.4 1021.9 -9.9 -9.999 -99.9 -99.99 -9.99
2020/02/27 14:00 EST    1.36   0.98    8  302   16  57.0  68.4 1021.8 -9.9 -9.999 -99.9 -99.99 -9.99
2020/02/27 14:06 EST    1.39   1.01    7  311   12  58.1  68.4 1021.8 -9.9 -9.999 -99.9 -99.99 -9.99
2020/02/27 14:12 EST    1.42   1.04    9  335   17  56.8  68.4 1021.8 -9.9 -9.999 -99.9 -99.99 -9.99
2020/02/27 14:18 EST    1.45   1.08   10  320   14  57.0  68.4 1021.8 -9.9 -9.999 -99.9 -99.99 -9.99
2020/02/27 14:24 EST    1.48   1.10   11  295   15  56.7  68.4 1021.8 -9.9 -9.999 -99.9 -99.99 -9.99
2020/02/27 14:30 EST    1.51   1.12    8  308   12  57.7  68.4 1021.8 -9.9 -9.999 -99.9 -99.99 -9.99
2020/02/27 14:36 EST    1.53   1.16   10  307   15  56.1  68.5 1021.7 -9.9 -9.999 -99.9 -99.99 -9.99
2020/02/27 14:42 EST    1.56   1.17    9  318   15  57.0  68.5 1021.7 -9.9 -9.999 -99.9 -99.99 -9.99
2020/02/27 14:48 EST    1.58   1.19    8  315   15  56.8  68.5 1021.6 -9.9 -9.999 -99.9 -99.99 -9.99
2020/02/27 14:54 EST    1.60   1.21    8  322   14  57.6  68.5 1021.7 -9.9 -9.999 -99.9 -99.99 -9.99
2020/02/27 15:00 EST    1.62   1.22    7  321   14  57.4  68.5 1021.6 -9.9 -9.999 -99.9 -99.99 -9.99
2020/02/27 15:06 EST    1.64   1.22    9  306   14  57.4  68.5 1021.6 -9.9 -9.999 -99.9 -99.99 -9.99
2020/02/27 15:12 EST    1.66   1.25   10  315   15  56.7  68.5 1021.6 -9.9 -9.999 -99.9 -99.99 -9.99
2020/02/27 15:18 EST    1.67 -99.99 -999 -999 -999 -99.9 -99.9 -999.9 -9.9 -9.999 -99.9 -99.99 -9.99
2020/02/27 15:24 EST    1.68   1.28    8  333   14  56.3  68.5 1021.5 -9.9 -9.999 -99.9 -99.99 -9.99
2020/02/27 15:30 EST    1.69   1.30    9  310   16  56.8  68.5 1021.5 -9.9 -9.999 -99.9 -99.99 -9.99
2020/02/27 15:36 EST    1.70   1.31   10  305   14  57.0  68.5 1021.4 -9.9 -9.999 -99.9 -99.99 -9.99
2020/02/27 15:42 EST    1.71   1.33    9  291   14  56.8  68.5 1021.4 -9.9 -9.999 -99.9 -99.99 -9.99
2020/02/27 15:48 EST    1.71   1.33   14  288   17  56.5  68.5 1021.5 -9.9 -9.999 -99.9 -99.99 -9.99
2020/02/27 15:54 EST    1.71   1.34    9  323   15  56.1  68.5 1021.5 -9.9 -9.999 -99.9 -99.99 -9.99
2020/02/27 16:00 EST    1.71   1.35   11  290   15  55.8  68.5 1021.6 -9.9 -9.999 -99.9 -99.99 -9.99
2020/02/27 16:06 EST    1.71   1.37   11  302   15  55.9  68.5 1021.6 -9.9 -9.999 -99.9 -99.99 -9.99
2020/02/27 16:12 EST    1.71 -99.99 -999 -999 -999 -99.9 -99.9 -999.9 -9.9 -9.999 -99.9 -99.99 -9.99
2020/02/27 16:18 EST    1.70   1.36   10  323   15  55.2  68.5 1021.8 -9.9 -9.999 -99.9 -99.99 -9.99
2020/02/27 16:24 EST    1.70   1.36    9  308   14  55.9  68.5 1021.7 -9.9 -9.999 -99.9 -99.99 -9.99
2020/02/27 16:30 EST    1.69 -99.99 -999 -999 -999 -99.9 -99.9 -999.9 -9.9 -9.999 -99.9 -99.99 -9.99
2020/02/27 16:36 EST    1.68   1.38   10  313   14  56.5  68.5 1021.7 -9.9 -9.999 -99.9 -99.99 -9.99
2020/02/27 16:42 EST    1.66   1.37   13  300   17  56.1  68.5 1021.7 -9.9 -9.999 -99.9 -99.99 -9.99
2020/02/27 16:48 EST    1.65   1.36   11  294   16  55.9  68.5 1021.8 -9.9 -9.999 -99.9 -99.99 -9.99
2020/02/27 16:54 EST    1.63   1.37   11  300   16  55.4  68.5 1022.0 -9.9 -9.999 -99.9 -99.99 -9.99
2020/02/27 17:00 EST    1.62   1.33   11  289   15  55.2  68.5 1022.1 -9.9 -9.999 -99.9 -99.99 -9.99
2020/02/27 17:06 EST    1.60   1.33   10  296   18  55.2  68.5 1022.2 -9.9 -9.999 -99.9 -99.99 -9.99
2020/02/27 17:12 EST    1.58   1.33   11  320   15  55.0  68.5 1022.2 -9.9 -9.999 -99.9 -99.99 -9.99
2020/02/27 17:18 EST    1.55   1.31    8  327   11  55.6  68.4 1022.2 -9.9 -9.999 -99.9 -99.99 -9.99
2020/02/27 17:24 EST    1.53   1.28   10  313   15  55.0  68.4 1022.3 -9.9 -9.999 -99.9 -99.99 -9.99
2020/02/27 17:30 EST    1.50   1.29    9  313   13  54.5  68.4 1022.3 -9.9 -9.999 -99.9 -99.99 -9.99
2020/02/27 17:36 EST    1.48   1.25   10  298   15  54.9  68.4 1022.4 -9.9 -9.999 -99.9 -99.99 -9.99
2020/02/27 17:42 EST    1.45   1.24    7  316   13  54.9  68.4 1022.5 -9.9 -9.999 -99.9 -99.99 -9.99
2020/02/27 17:48 EST    1.42   1.23    8  310   13  54.7  68.4 1022.5 -9.9 -9.999 -99.9 -99.99 -9.99
2020/02/27 17:54 EST    1.39   1.19    8  312   13  54.3  68.4 1022.5 -9.9 -9.999 -99.9 -99.99 -9.99
2020/02/27 18:00 EST    1.36   1.18   10  300   14  54.3  68.4 1022.6 -9.9 -9.999 -99.9 -99.99 -9.99
2020/02/27 18:06 EST    1.33   1.17    7  322   13  53.8  68.2 1022.6 -9.9 -9.999 -99.9 -99.99 -9.99
2020/02/27 18:12 EST    1.29   1.15    7  322   13  53.2  68.2 1022.6 -9.9 -9.999 -99.9 -99.99 -9.99
2020/02/27 18:18 EST    1.26   1.13    5  328   12  53.2  68.2 1022.7 -9.9 -9.999 -99.9 -99.99 -9.99
2020/02/27 18:24 EST    1.23   1.10    6  300    9  53.4  68.2 1022.7 -9.9 -9.999 -99.9 -99.99 -9.99
2020/02/27 18:30 EST    1.19   1.09    4  327    8  52.7  68.2 1022.8 -9.9 -9.999 -99.9 -99.99 -9.99
2020/02/27 18:36 EST    1.15   1.06    7  313   11  52.7  68.2 1022.9 -9.9 -9.999 -99.9 -99.99 -9.99
2020/02/27 18:42 EST    1.12   1.03    6  320   10  52.5  68.2 1023.0 -9.9 -9.999 -99.9 -99.99 -9.99
2020/02/27 18:48 EST    1.08   1.00    6  301    8  52.7  68.0 1023.0 -9.9 -9.999 -99.9 -99.99 -9.99
2020/02/27 18:54 EST    1.05   0.99    7  293   11  52.5  68.0 1023.0 -9.9 -9.999 -99.9 -99.99 -9.99
2020/02/27 19:00 EST    1.01   0.97    4  314   10  52.2  68.0 1023.0 -9.9 -9.999 -99.9 -99.99 -9.99
2020/02/27 19:06 EST    0.97   0.93    4  328   11  52.0  68.0 1023.0 -9.9 -9.999 -99.9 -99.99 -9.99
2020/02/27 19:12 EST    0.93   0.91    4  317    6  51.8  68.0 1023.0 -9.9 -9.999 -99.9 -99.99 -9.99
2020/02/27 19:18 EST    0.90   0.87    6  318    9  51.8  68.0 1023.1 -9.9 -9.999 -99.9 -99.99 -9.99
2020/02/27 19:24 EST    0.86   0.84    4  331    7  51.8  68.0 1023.1 -9.9 -9.999 -99.9 -99.99 -9.99
2020/02/27 19:30 EST    0.82   0.83    4  318    6  52.0  68.0 1023.2 -9.9 -9.999 -99.9 -99.99 -9.99
2020/02/27 19:36 EST    0.78   0.80    5  329    7  51.6  68.0 1023.2 -9.9 -9.999 -99.9 -99.99 -9.99
2020/02/27 19:42 EST    0.75   0.77    3  351    5  51.4  68.0 1023.2 -9.9 -9.999 -99.9 -99.99 -9.99
2020/02/27 19:48 EST    0.71   0.75    3  325    5  51.3  68.0 1023.3 -9.9 -9.999 -99.9 -99.99 -9.99
2020/02/27 19:54 EST    0.68   0.72    3  328    6  51.4  68.0 1023.3 -9.9 -9.999 -99.9 -99.99 -9.99
2020/02/27 20:00 EST    0.64   0.67    4  338    5  51.1  68.0 1023.4 -9.9 -9.999 -99.9 -99.99 -9.99
2020/02/27 20:06 EST    0.61   0.64    3  319    4  51.6  68.0 1023.5 -9.9 -9.999 -99.9 -99.99 -9.99
2020/02/27 20:12 EST    0.57   0.61    3  320    6  51.4  68.0 1023.6 -9.9 -9.999 -99.9 -99.99 -9.99
2020/02/27 20:18 EST    0.54   0.57    2  307    4  51.3  68.0 1023.6 -9.9 -9.999 -99.9 -99.99 -9.99
2020/02/27 20:24 EST    0.51   0.55    5  320    7  51.4  68.0 1023.7 -9.9 -9.999 -99.9 -99.99 -9.99
2020/02/27 20:30 EST    0.48   0.53    6  317    7  51.3  68.0 1023.7 -9.9 -9.999 -99.9 -99.99 -9.99
2020/02/27 20:36 EST    0.45   0.51    6  322    8  51.3  68.0 1023.6 -9.9 -9.999 -99.9 -99.99 -9.99
2020/02/27 20:42 EST    0.42   0.47    6  306    8  51.6  68.0 1023.6 -9.9 -9.999 -99.9 -99.99 -9.99
2020/02/27 20:48 EST    0.39   0.46    6  308    9  51.6  68.0 1023.6 -9.9 -9.999 -99.9 -99.99 -9.99
2020/02/27 20:54 EST    0.36   0.45    4  294    7  51.8  67.8 1023.8 -9.9 -9.999 -99.9 -99.99 -9.99
2020/02/27 21:00 EST    0.34   0.40    2  321    7  51.4  67.8 1023.8 -9.9 -9.999 -99.9 -99.99 -9.99
2020/02/27 21:06 EST    0.32   0.39    3  318    5  51.1  67.8 1023.9 -9.9 -9.999 -99.9 -99.99 -9.99
2020/02/27 21:12 EST    0.29   0.36    4  330    6  51.1  67.8 1023.7 -9.9 -9.999 -99.9 -99.99 -9.99
2020/02/27 21:18 EST    0.27   0.34    5  337    8  51.1  67.8 1023.6 -9.9 -9.999 -99.9 -99.99 -9.99
2020/02/27 21:24 EST    0.25   0.33    6  324    8  51.1  67.8 1023.6 -9.9 -9.999 -99.9 -99.99 -9.99
2020/02/27 21:30 EST    0.23   0.33    4  315    9  51.4  67.8 1023.7 -9.9 -9.999 -99.9 -99.99 -9.99
2020/02/27 21:36 EST    0.22   0.33    2  320    7  51.1  67.8 1023.8 -9.9 -9.999 -99.9 -99.99 -9.99
2020/02/27 21:42 EST    0.20   0.32    1  311    4  50.9  67.8 1023.9 -9.9 -9.999 -99.9 -99.99 -9.99
2020/02/27 21:48 EST    0.19   0.32    4  340    5  50.9  67.8 1023.8 -9.9 -9.999 -99.9 -99.99 -9.99
2020/02/27 21:54 EST    0.18   0.30    3  319    6  50.9  67.8 1023.7 -9.9 -9.999 -99.9 -99.99 -9.99
2020/02/27 22:00 EST    0.17   0.30    4  316    6  51.1  67.8 1023.8 -9.9 -9.999 -99.9 -99.99 -9.99
2020/02/27 22:06 EST    0.16   0.29    4  310    7  51.4  67.8 1023.8 -9.9 -9.999 -99.9 -99.99 -9.99
2020/02/27 22:12 EST    0.15   0.29    2  324    5  51.1  67.8 1023.9 -9.9 -9.999 -99.9 -99.99 -9.99
2020/02/27 22:18 EST    0.15   0.29    2  305    4  51.3  67.8 1024.0 -9.9 -9.999 -99.9 -99.99 -9.99
2020/02/27 22:24 EST    0.15   0.29    1  288    3  51.1  67.8 1024.1 -9.9 -9.999 -99.9 -99.99 -9.99
2020/02/27 22:30 EST    0.15   0.31    2  310    3  51.1  67.8 1024.1 -9.9 -9.999 -99.9 -99.99 -9.99
2020/02/27 22:36 EST    0.15   0.32    3  293    5  51.4  67.8 1024.2 -9.9 -9.999 -99.9 -99.99 -9.99
2020/02/27 22:42 EST    0.15   0.31    4  269    5  51.4  67.8 1024.2 -9.9 -9.999 -99.9 -99.99 -9.99
2020/02/27 22:48 EST    0.15   0.32    4  294    5  51.6  67.8 1024.1 -9.9 -9.999 -99.9 -99.99 -9.99
2020/02/27 22:54 EST    0.16   0.35    4  295    5  51.3  67.8 1024.1 -9.9 -9.999 -99.9 -99.99 -9.99
2020/02/27 23:00 EST    0.17   0.38    4  302    6  51.3  67.8 1024.1 -9.9 -9.999 -99.9 -99.99 -9.99
2020/02/27 23:06 EST    0.18   0.40    2  320    4  50.7  67.8 1024.1 -9.9 -9.999 -99.9 -99.99 -9.99
2020/02/27 23:12 EST    0.19   0.43    2  325    4  50.7  67.8 1024.1 -9.9 -9.999 -99.9 -99.99 -9.99
2020/02/27 23:18 EST    0.20   0.44    2  321    3  50.5  67.8 1024.0 -9.9 -9.999 -99.9 -99.99 -9.99
2020/02/27 23:24 EST    0.22   0.45    3  313    4  50.9  67.8 1024.1 -9.9 -9.999 -99.9 -99.99 -9.99
2020/02/27 23:30 EST    0.23   0.49    5  299    6  51.6  67.8 1024.1 -9.9 -9.999 -99.9 -99.99 -9.99
2020/02/27 23:36 EST    0.25   0.51    4  303    7  51.8  67.6 1024.1 -9.9 -9.999 -99.9 -99.99 -9.99
2020/02/27 23:42 EST    0.27 -99.99 -999 -999 -999 -99.9 -99.9 -999.9 -9.9 -9.999 -99.9 -99.99 -9.99
2020/02/27 23:48 EST    0.29   0.57    4  311    6  51.6  67.1 1024.0 -9.9 -9.999 -99.9 -99.99 -9.99
2020/02/27 23:54 EST    0.31   0.60    4  318    6  51.4  66.9 1024.0 -9.9 -9.999 -99.9 -99.99 -9.99
2020/02/28 00:00 EST    0.33 -99.99 -999 -999 -999 -99.9 -99.9 -999.9 -9.9 -9.999 -99.9 -99.99 -9.99
2020/02/28 00:06 EST    0.36   0.66    4  319    6  51.4  66.9 1024.0 -9.9 -9.999 -99.9 -99.99 -9.99
2020/02/28 00:12 EST    0.38   0.68    4  317    7  51.4  66.9 1023.9 -9.9 -9.999 -99.9 -99.99 -9.99
2020/02/28 00:18 EST    0.41 -99.99 -999 -999 -999 -99.9 -99.9 -999.9 -9.9 -9.999 -99.9 -99.99 -9.99